<?xml version='1.0' encoding='UTF-8'?>
<gpx version="1.1" creator="https://www.komoot.de" xmlns="http://www.topografix.com/GPX/1/1" xmlns:xsi="http://www.w3.org/2001/XMLSchema-instance" xsi:schemaLocation="http://www.topografix.com/GPX/1/1 http://www.topografix.com/GPX/1/1/gpx.xsd">
  <metadata>
    <name>40_280PrattelnSchhhoenma</name>
    <author>
      <link href="https://www.komoot.de">
        <text>komoot</text>
        <type>text/html</type>
      </link>
    </author>
  </metadata>
  <trk>
    <name>40_280PrattelnSchhhoenma</name>
    <trkseg>
      <trkpt lat="47.541953" lon="7.871286">
        <ele>342.804493</ele>
        <time>2021-11-07T12:20:39.475Z</time>
      </trkpt>
      <trkpt lat="47.541953" lon="7.871286">
        <ele>342.804493</ele>
        <time>2021-11-07T12:20:39.490Z</time>
      </trkpt>
      <trkpt lat="47.542039" lon="7.871556">
        <ele>342.804493</ele>
        <time>2021-11-07T12:20:44.481Z</time>
      </trkpt>
      <trkpt lat="47.542067" lon="7.871664">
        <ele>342.804493</ele>
        <time>2021-11-07T12:20:46.116Z</time>
      </trkpt>
      <trkpt lat="47.542091" lon="7.871721">
        <ele>342.804493</ele>
        <time>2021-11-07T12:20:46.751Z</time>
      </trkpt>
      <trkpt lat="47.542218" lon="7.871866">
        <ele>342.804493</ele>
        <time>2021-11-07T12:20:50.473Z</time>
      </trkpt>
      <trkpt lat="47.542394" lon="7.872341">
        <ele>342.804493</ele>
        <time>2021-11-07T12:21:00.865Z</time>
      </trkpt>
      <trkpt lat="47.542436" lon="7.872494">
        <ele>343.115333</ele>
        <time>2021-11-07T12:21:05.920Z</time>
      </trkpt>
      <trkpt lat="47.542351" lon="7.872540">
        <ele>343.559922</ele>
        <time>2021-11-07T12:21:07.590Z</time>
      </trkpt>
      <trkpt lat="47.542351" lon="7.872540">
        <ele>343.559922</ele>
        <time>2021-11-07T12:21:07.596Z</time>
      </trkpt>
      <trkpt lat="47.542351" lon="7.872540">
        <ele>343.559922</ele>
        <time>2021-11-07T12:21:07.678Z</time>
      </trkpt>
      <trkpt lat="47.542436" lon="7.872494">
        <ele>344.004512</ele>
        <time>2021-11-07T12:21:10.182Z</time>
      </trkpt>
      <trkpt lat="47.542537" lon="7.872430">
        <ele>344.544204</ele>
        <time>2021-11-07T12:21:13.160Z</time>
      </trkpt>
      <trkpt lat="47.542714" lon="7.872334">
        <ele>345.470237</ele>
        <time>2021-11-07T12:21:19.826Z</time>
      </trkpt>
      <trkpt lat="47.542814" lon="7.872280">
        <ele>345.993150</ele>
        <time>2021-11-07T12:21:22.897Z</time>
      </trkpt>
      <trkpt lat="47.542919" lon="7.872226">
        <ele>346.539206</ele>
        <time>2021-11-07T12:21:27.477Z</time>
      </trkpt>
      <trkpt lat="47.543013" lon="7.872182">
        <ele>347.023523</ele>
        <time>2021-11-07T12:21:30.563Z</time>
      </trkpt>
      <trkpt lat="47.543233" lon="7.872082">
        <ele>348.154096</ele>
        <time>2021-11-07T12:21:37.924Z</time>
      </trkpt>
      <trkpt lat="47.543251" lon="7.872152">
        <ele>348.402515</ele>
        <time>2021-11-07T12:21:41.578Z</time>
      </trkpt>
      <trkpt lat="47.543332" lon="7.872237">
        <ele>348.890186</ele>
        <time>2021-11-07T12:21:44.101Z</time>
      </trkpt>
      <trkpt lat="47.544390" lon="7.872423">
        <ele>355.037522</ele>
        <time>2021-11-07T12:22:24.623Z</time>
      </trkpt>
      <trkpt lat="47.544883" lon="7.872555">
        <ele>358.403692</ele>
        <time>2021-11-07T12:22:46.965Z</time>
      </trkpt>
      <trkpt lat="47.545131" lon="7.872664">
        <ele>360.141809</ele>
        <time>2021-11-07T12:22:57.969Z</time>
      </trkpt>
      <trkpt lat="47.545375" lon="7.872836">
        <ele>361.957395</ele>
        <time>2021-11-07T12:23:08.910Z</time>
      </trkpt>
      <trkpt lat="47.545478" lon="7.872968">
        <ele>362.872471</ele>
        <time>2021-11-07T12:23:15.718Z</time>
      </trkpt>
      <trkpt lat="47.545515" lon="7.873015">
        <ele>363.199952</ele>
        <time>2021-11-07T12:23:17.674Z</time>
      </trkpt>
      <trkpt lat="47.545746" lon="7.873302">
        <ele>365.038184</ele>
        <time>2021-11-07T12:23:30.874Z</time>
      </trkpt>
      <trkpt lat="47.545934" lon="7.873549">
        <ele>366.515480</ele>
        <time>2021-11-07T12:23:40.974Z</time>
      </trkpt>
      <trkpt lat="47.546077" lon="7.873763">
        <ele>367.710467</ele>
        <time>2021-11-07T12:23:50.170Z</time>
      </trkpt>
      <trkpt lat="47.546135" lon="7.873859">
        <ele>368.221746</ele>
        <time>2021-11-07T12:23:53.409Z</time>
      </trkpt>
      <trkpt lat="47.546309" lon="7.874154">
        <ele>369.776390</ele>
        <time>2021-11-07T12:24:04.524Z</time>
      </trkpt>
      <trkpt lat="47.547126" lon="7.875801">
        <ele>375.750755</ele>
        <time>2021-11-07T12:24:50.285Z</time>
      </trkpt>
      <trkpt lat="47.547574" lon="7.876801">
        <ele>377.676332</ele>
        <time>2021-11-07T12:25:09.281Z</time>
      </trkpt>
      <trkpt lat="47.547992" lon="7.877974">
        <ele>377.160456</ele>
        <time>2021-11-07T12:25:22.081Z</time>
      </trkpt>
      <trkpt lat="47.548234" lon="7.878638">
        <ele>375.765695</ele>
        <time>2021-11-07T12:25:27.345Z</time>
      </trkpt>
      <trkpt lat="47.548422" lon="7.878959">
        <ele>374.980175</ele>
        <time>2021-11-07T12:25:30.115Z</time>
      </trkpt>
      <trkpt lat="47.548718" lon="7.879258">
        <ele>373.999151</ele>
        <time>2021-11-07T12:25:33.531Z</time>
      </trkpt>
      <trkpt lat="47.549140" lon="7.879391">
        <ele>372.299600</ele>
        <time>2021-11-07T12:25:37.600Z</time>
      </trkpt>
      <trkpt lat="47.549318" lon="7.879398">
        <ele>371.508655</ele>
        <time>2021-11-07T12:25:39.213Z</time>
      </trkpt>
      <trkpt lat="47.549426" lon="7.879394">
        <ele>371.028775</ele>
        <time>2021-11-07T12:25:40.256Z</time>
      </trkpt>
      <trkpt lat="47.549694" lon="7.879391">
        <ele>369.838299</ele>
        <time>2021-11-07T12:25:42.781Z</time>
      </trkpt>
      <trkpt lat="47.549920" lon="7.879395">
        <ele>368.834347</ele>
        <time>2021-11-07T12:25:44.976Z</time>
      </trkpt>
      <trkpt lat="47.549993" lon="7.879403">
        <ele>368.509199</ele>
        <time>2021-11-07T12:25:45.651Z</time>
      </trkpt>
      <trkpt lat="47.550458" lon="7.879428">
        <ele>366.442334</ele>
        <time>2021-11-07T12:25:50.150Z</time>
      </trkpt>
      <trkpt lat="47.550948" lon="7.879456">
        <ele>364.958860</ele>
        <time>2021-11-07T12:25:55.059Z</time>
      </trkpt>
      <trkpt lat="47.551453" lon="7.879539">
        <ele>363.824351</ele>
        <time>2021-11-07T12:26:00.681Z</time>
      </trkpt>
      <trkpt lat="47.551499" lon="7.879547">
        <ele>363.720934</ele>
        <time>2021-11-07T12:26:01.200Z</time>
      </trkpt>
      <trkpt lat="47.552616" lon="7.879896">
        <ele>361.064543</ele>
        <time>2021-11-07T12:26:14.219Z</time>
      </trkpt>
      <trkpt lat="47.553292" lon="7.880216">
        <ele>359.120004</ele>
        <time>2021-11-07T12:26:21.889Z</time>
      </trkpt>
      <trkpt lat="47.554555" lon="7.880902">
        <ele>354.863582</ele>
        <time>2021-11-07T12:26:35.315Z</time>
      </trkpt>
      <trkpt lat="47.554711" lon="7.880958">
        <ele>354.228100</ele>
        <time>2021-11-07T12:26:36.925Z</time>
      </trkpt>
      <trkpt lat="47.554840" lon="7.880981">
        <ele>353.713696</ele>
        <time>2021-11-07T12:26:38.142Z</time>
      </trkpt>
      <trkpt lat="47.554892" lon="7.880986">
        <ele>353.507392</ele>
        <time>2021-11-07T12:26:38.637Z</time>
      </trkpt>
      <trkpt lat="47.555165" lon="7.880954">
        <ele>352.423189</ele>
        <time>2021-11-07T12:26:41.316Z</time>
      </trkpt>
      <trkpt lat="47.555425" lon="7.880859">
        <ele>351.362997</ele>
        <time>2021-11-07T12:26:43.924Z</time>
      </trkpt>
      <trkpt lat="47.555605" lon="7.880857">
        <ele>350.650344</ele>
        <time>2021-11-07T12:26:45.628Z</time>
      </trkpt>
      <trkpt lat="47.555842" lon="7.880916">
        <ele>349.698895</ele>
        <time>2021-11-07T12:26:48.015Z</time>
      </trkpt>
      <trkpt lat="47.555895" lon="7.880943">
        <ele>349.484362</ele>
        <time>2021-11-07T12:26:48.537Z</time>
      </trkpt>
      <trkpt lat="47.556017" lon="7.881027">
        <ele>348.984806</ele>
        <time>2021-11-07T12:26:49.818Z</time>
      </trkpt>
      <trkpt lat="47.556273" lon="7.881274">
        <ele>347.850407</ele>
        <time>2021-11-07T12:26:52.807Z</time>
      </trkpt>
      <trkpt lat="47.557683" lon="7.883801">
        <ele>340.222314</ele>
        <time>2021-11-07T12:27:14.862Z</time>
      </trkpt>
      <trkpt lat="47.557899" lon="7.884061">
        <ele>339.374282</ele>
        <time>2021-11-07T12:27:17.724Z</time>
      </trkpt>
      <trkpt lat="47.557948" lon="7.884120">
        <ele>339.181881</ele>
        <time>2021-11-07T12:27:18.386Z</time>
      </trkpt>
      <trkpt lat="47.558177" lon="7.884403">
        <ele>338.273204</ele>
        <time>2021-11-07T12:27:22.874Z</time>
      </trkpt>
      <trkpt lat="47.558217" lon="7.884461">
        <ele>338.102661</ele>
        <time>2021-11-07T12:27:23.463Z</time>
      </trkpt>
      <trkpt lat="47.558492" lon="7.884797">
        <ele>337.161647</ele>
        <time>2021-11-07T12:27:27.272Z</time>
      </trkpt>
      <trkpt lat="47.558762" lon="7.885100">
        <ele>336.487232</ele>
        <time>2021-11-07T12:27:30.915Z</time>
      </trkpt>
      <trkpt lat="47.559366" lon="7.885628">
        <ele>335.090835</ele>
        <time>2021-11-07T12:27:38.654Z</time>
      </trkpt>
      <trkpt lat="47.559578" lon="7.885821">
        <ele>334.595390</ele>
        <time>2021-11-07T12:27:41.516Z</time>
      </trkpt>
      <trkpt lat="47.559831" lon="7.886054">
        <ele>334.002239</ele>
        <time>2021-11-07T12:27:44.889Z</time>
      </trkpt>
      <trkpt lat="47.560259" lon="7.886453">
        <ele>333.155582</ele>
        <time>2021-11-07T12:27:50.484Z</time>
      </trkpt>
      <trkpt lat="47.560668" lon="7.886926">
        <ele>332.315329</ele>
        <time>2021-11-07T12:27:56.360Z</time>
      </trkpt>
      <trkpt lat="47.560792" lon="7.887135">
        <ele>332.011180</ele>
        <time>2021-11-07T12:27:58.386Z</time>
      </trkpt>
      <trkpt lat="47.560813" lon="7.887166">
        <ele>331.963173</ele>
        <time>2021-11-07T12:27:58.733Z</time>
      </trkpt>
      <trkpt lat="47.561031" lon="7.887508">
        <ele>331.449008</ele>
        <time>2021-11-07T12:28:02.279Z</time>
      </trkpt>
      <trkpt lat="47.562511" lon="7.889545">
        <ele>329.336629</ele>
        <time>2021-11-07T12:28:26.827Z</time>
      </trkpt>
      <trkpt lat="47.562675" lon="7.889844">
        <ele>329.283649</ele>
        <time>2021-11-07T12:28:30.553Z</time>
      </trkpt>
      <trkpt lat="47.562802" lon="7.890077">
        <ele>329.324865</ele>
        <time>2021-11-07T12:28:33.430Z</time>
      </trkpt>
      <trkpt lat="47.562868" lon="7.890182">
        <ele>329.344612</ele>
        <time>2021-11-07T12:28:34.932Z</time>
      </trkpt>
      <trkpt lat="47.563039" lon="7.889397">
        <ele>329.458124</ele>
        <time>2021-11-07T12:28:43.374Z</time>
      </trkpt>
      <trkpt lat="47.563560" lon="7.887288">
        <ele>330.545258</ele>
        <time>2021-11-07T12:29:09.862Z</time>
      </trkpt>
      <trkpt lat="47.563657" lon="7.886867">
        <ele>330.922213</ele>
        <time>2021-11-07T12:29:15.858Z</time>
      </trkpt>
      <trkpt lat="47.563909" lon="7.886506">
        <ele>331.362336</ele>
        <time>2021-11-07T12:29:23.147Z</time>
      </trkpt>
      <trkpt lat="47.565560" lon="7.884206">
        <ele>335.875895</ele>
        <time>2021-11-07T12:30:15.529Z</time>
      </trkpt>
      <trkpt lat="47.566604" lon="7.882741">
        <ele>339.757505</ele>
        <time>2021-11-07T12:30:53.023Z</time>
      </trkpt>
      <trkpt lat="47.566690" lon="7.882620">
        <ele>340.077653</ele>
        <time>2021-11-07T12:30:56.408Z</time>
      </trkpt>
      <trkpt lat="47.567774" lon="7.881098">
        <ele>343.305916</ele>
        <time>2021-11-07T12:31:35.037Z</time>
      </trkpt>
      <trkpt lat="47.568855" lon="7.879614">
        <ele>343.915366</ele>
        <time>2021-11-07T12:31:59.440Z</time>
      </trkpt>
      <trkpt lat="47.569889" lon="7.878149">
        <ele>342.594006</ele>
        <time>2021-11-07T12:32:15.732Z</time>
      </trkpt>
      <trkpt lat="47.569974" lon="7.878003">
        <ele>342.386739</ele>
        <time>2021-11-07T12:32:17.167Z</time>
      </trkpt>
      <trkpt lat="47.570440" lon="7.877017">
        <ele>341.092849</ele>
        <time>2021-11-07T12:32:26.364Z</time>
      </trkpt>
      <trkpt lat="47.570733" lon="7.876421">
        <ele>340.395178</ele>
        <time>2021-11-07T12:32:32.170Z</time>
      </trkpt>
      <trkpt lat="47.571754" lon="7.874288">
        <ele>338.315763</ele>
        <time>2021-11-07T12:32:53.261Z</time>
      </trkpt>
      <trkpt lat="47.572765" lon="7.872183">
        <ele>337.050545</ele>
        <time>2021-11-07T12:33:14.941Z</time>
      </trkpt>
      <trkpt lat="47.572867" lon="7.871849">
        <ele>337.180978</ele>
        <time>2021-11-07T12:33:18.390Z</time>
      </trkpt>
      <trkpt lat="47.573081" lon="7.871074">
        <ele>337.478898</ele>
        <time>2021-11-07T12:33:27.487Z</time>
      </trkpt>
      <trkpt lat="47.573242" lon="7.870224">
        <ele>337.792991</ele>
        <time>2021-11-07T12:33:38.968Z</time>
      </trkpt>
      <trkpt lat="47.573270" lon="7.869980">
        <ele>337.881044</ele>
        <time>2021-11-07T12:33:42.414Z</time>
      </trkpt>
      <trkpt lat="47.573327" lon="7.869478">
        <ele>338.135562</ele>
        <time>2021-11-07T12:33:49.909Z</time>
      </trkpt>
      <trkpt lat="47.573388" lon="7.869020">
        <ele>338.381961</ele>
        <time>2021-11-07T12:33:56.846Z</time>
      </trkpt>
      <trkpt lat="47.573580" lon="7.868234">
        <ele>338.823169</ele>
        <time>2021-11-07T12:34:08.099Z</time>
      </trkpt>
      <trkpt lat="47.573902" lon="7.867343">
        <ele>339.135794</ele>
        <time>2021-11-07T12:34:19.282Z</time>
      </trkpt>
      <trkpt lat="47.574034" lon="7.867032">
        <ele>338.236314</ele>
        <time>2021-11-07T12:34:22.339Z</time>
      </trkpt>
      <trkpt lat="47.574854" lon="7.865675">
        <ele>333.776599</ele>
        <time>2021-11-07T12:34:34.677Z</time>
      </trkpt>
      <trkpt lat="47.575475" lon="7.864127">
        <ele>325.298696</ele>
        <time>2021-11-07T12:34:45.402Z</time>
      </trkpt>
      <trkpt lat="47.575527" lon="7.863840">
        <ele>323.706481</ele>
        <time>2021-11-07T12:34:47.221Z</time>
      </trkpt>
      <trkpt lat="47.575529" lon="7.863765">
        <ele>323.304324</ele>
        <time>2021-11-07T12:34:47.643Z</time>
      </trkpt>
      <trkpt lat="47.575529" lon="7.863690">
        <ele>322.902481</ele>
        <time>2021-11-07T12:34:48.071Z</time>
      </trkpt>
      <trkpt lat="47.575296" lon="7.862440">
        <ele>316.708680</ele>
        <time>2021-11-07T12:34:55.751Z</time>
      </trkpt>
      <trkpt lat="47.575288" lon="7.862118">
        <ele>315.492789</ele>
        <time>2021-11-07T12:34:57.631Z</time>
      </trkpt>
      <trkpt lat="47.575373" lon="7.861941">
        <ele>314.672938</ele>
        <time>2021-11-07T12:34:58.990Z</time>
      </trkpt>
      <trkpt lat="47.576083" lon="7.861029">
        <ele>309.417916</ele>
        <time>2021-11-07T12:35:07.919Z</time>
      </trkpt>
      <trkpt lat="47.576292" lon="7.860775">
        <ele>308.379880</ele>
        <time>2021-11-07T12:35:10.751Z</time>
      </trkpt>
      <trkpt lat="47.576060" lon="7.860505">
        <ele>308.180508</ele>
        <time>2021-11-07T12:35:15.814Z</time>
      </trkpt>
      <trkpt lat="47.575661" lon="7.860260">
        <ele>307.888590</ele>
        <time>2021-11-07T12:35:23.196Z</time>
      </trkpt>
      <trkpt lat="47.575482" lon="7.860014">
        <ele>307.723599</ele>
        <time>2021-11-07T12:35:28.229Z</time>
      </trkpt>
      <trkpt lat="47.575090" lon="7.859216">
        <ele>307.273467</ele>
        <time>2021-11-07T12:35:43.122Z</time>
      </trkpt>
      <trkpt lat="47.574369" lon="7.857634">
        <ele>307.535448</ele>
        <time>2021-11-07T12:36:11.796Z</time>
      </trkpt>
      <trkpt lat="47.574089" lon="7.857293">
        <ele>307.626216</ele>
        <time>2021-11-07T12:36:18.726Z</time>
      </trkpt>
      <trkpt lat="47.573544" lon="7.856804">
        <ele>307.548963</ele>
        <time>2021-11-07T12:36:30.880Z</time>
      </trkpt>
      <trkpt lat="47.572923" lon="7.856141">
        <ele>307.312533</ele>
        <time>2021-11-07T12:36:46.022Z</time>
      </trkpt>
      <trkpt lat="47.572248" lon="7.855212">
        <ele>306.826244</ele>
        <time>2021-11-07T12:37:03.035Z</time>
      </trkpt>
      <trkpt lat="47.571837" lon="7.854626">
        <ele>306.280313</ele>
        <time>2021-11-07T12:37:13.085Z</time>
      </trkpt>
      <trkpt lat="47.571655" lon="7.854341">
        <ele>306.026863</ele>
        <time>2021-11-07T12:37:17.512Z</time>
      </trkpt>
      <trkpt lat="47.571552" lon="7.854175">
        <ele>305.881203</ele>
        <time>2021-11-07T12:37:20.152Z</time>
      </trkpt>
      <trkpt lat="47.571426" lon="7.854000">
        <ele>305.715904</ele>
        <time>2021-11-07T12:37:23.043Z</time>
      </trkpt>
      <trkpt lat="47.570995" lon="7.853612">
        <ele>305.286896</ele>
        <time>2021-11-07T12:37:31.787Z</time>
      </trkpt>
      <trkpt lat="47.571006" lon="7.853563">
        <ele>305.264141</ele>
        <time>2021-11-07T12:37:32.298Z</time>
      </trkpt>
      <trkpt lat="47.571040" lon="7.853377">
        <ele>305.179226</ele>
        <time>2021-11-07T12:37:34.465Z</time>
      </trkpt>
      <trkpt lat="47.570248" lon="7.851287">
        <ele>304.186847</ele>
        <time>2021-11-07T12:38:04.274Z</time>
      </trkpt>
      <trkpt lat="47.569969" lon="7.850553">
        <ele>304.042451</ele>
        <time>2021-11-07T12:38:15.565Z</time>
      </trkpt>
      <trkpt lat="47.569218" lon="7.848472">
        <ele>303.540452</ele>
        <time>2021-11-07T12:38:46.441Z</time>
      </trkpt>
      <trkpt lat="47.569190" lon="7.848402">
        <ele>303.516251</ele>
        <time>2021-11-07T12:38:47.424Z</time>
      </trkpt>
      <trkpt lat="47.568515" lon="7.846479">
        <ele>302.932960</ele>
        <time>2021-11-07T12:39:14.420Z</time>
      </trkpt>
      <trkpt lat="47.568494" lon="7.846252">
        <ele>302.904182</ele>
        <time>2021-11-07T12:39:17.440Z</time>
      </trkpt>
      <trkpt lat="47.568507" lon="7.846212">
        <ele>302.898605</ele>
        <time>2021-11-07T12:39:17.939Z</time>
      </trkpt>
      <trkpt lat="47.568447" lon="7.846163">
        <ele>302.885853</ele>
        <time>2021-11-07T12:39:19.296Z</time>
      </trkpt>
      <trkpt lat="47.568380" lon="7.846056">
        <ele>302.867517</ele>
        <time>2021-11-07T12:39:21.246Z</time>
      </trkpt>
      <trkpt lat="47.568337" lon="7.845953">
        <ele>302.852304</ele>
        <time>2021-11-07T12:39:22.854Z</time>
      </trkpt>
      <trkpt lat="47.568270" lon="7.845762">
        <ele>302.825266</ele>
        <time>2021-11-07T12:39:25.664Z</time>
      </trkpt>
      <trkpt lat="47.567488" lon="7.843506">
        <ele>302.492985</ele>
        <time>2021-11-07T12:39:59.849Z</time>
      </trkpt>
      <trkpt lat="47.567439" lon="7.843376">
        <ele>302.472399</ele>
        <time>2021-11-07T12:40:01.818Z</time>
      </trkpt>
      <trkpt lat="47.566996" lon="7.842102">
        <ele>302.274038</ele>
        <time>2021-11-07T12:40:20.548Z</time>
      </trkpt>
      <trkpt lat="47.566903" lon="7.841865">
        <ele>302.193294</ele>
        <time>2021-11-07T12:40:23.913Z</time>
      </trkpt>
      <trkpt lat="47.566452" lon="7.840785">
        <ele>301.819234</ele>
        <time>2021-11-07T12:40:39.601Z</time>
      </trkpt>
      <trkpt lat="47.566401" lon="7.840664">
        <ele>301.777216</ele>
        <time>2021-11-07T12:40:41.356Z</time>
      </trkpt>
      <trkpt lat="47.566359" lon="7.840483">
        <ele>301.720845</ele>
        <time>2021-11-07T12:40:43.868Z</time>
      </trkpt>
      <trkpt lat="47.566350" lon="7.840350">
        <ele>301.681479</ele>
        <time>2021-11-07T12:40:45.630Z</time>
      </trkpt>
      <trkpt lat="47.566450" lon="7.840326">
        <ele>301.637262</ele>
        <time>2021-11-07T12:40:47.020Z</time>
      </trkpt>
      <trkpt lat="47.566515" lon="7.840312">
        <ele>301.608592</ele>
        <time>2021-11-07T12:40:47.868Z</time>
      </trkpt>
      <trkpt lat="47.566592" lon="7.840279">
        <ele>301.573606</ele>
        <time>2021-11-07T12:40:49.016Z</time>
      </trkpt>
      <trkpt lat="47.566826" lon="7.840179">
        <ele>301.472142</ele>
        <time>2021-11-07T12:40:52.369Z</time>
      </trkpt>
      <trkpt lat="47.567111" lon="7.839998">
        <ele>301.366446</ele>
        <time>2021-11-07T12:40:56.685Z</time>
      </trkpt>
      <trkpt lat="47.567406" lon="7.839778">
        <ele>301.253872</ele>
        <time>2021-11-07T12:41:01.229Z</time>
      </trkpt>
      <trkpt lat="47.567481" lon="7.839664">
        <ele>301.217250</ele>
        <time>2021-11-07T12:41:02.663Z</time>
      </trkpt>
      <trkpt lat="47.567510" lon="7.839548">
        <ele>301.188798</ele>
        <time>2021-11-07T12:41:03.870Z</time>
      </trkpt>
      <trkpt lat="47.567530" lon="7.839459">
        <ele>301.167222</ele>
        <time>2021-11-07T12:41:04.721Z</time>
      </trkpt>
      <trkpt lat="47.567564" lon="7.839283">
        <ele>301.125115</ele>
        <time>2021-11-07T12:41:06.353Z</time>
      </trkpt>
      <trkpt lat="47.567626" lon="7.839064">
        <ele>301.070490</ele>
        <time>2021-11-07T12:41:08.619Z</time>
      </trkpt>
      <trkpt lat="47.567634" lon="7.839037">
        <ele>301.063708</ele>
        <time>2021-11-07T12:41:08.852Z</time>
      </trkpt>
      <trkpt lat="47.567823" lon="7.838648">
        <ele>300.953455</ele>
        <time>2021-11-07T12:41:13.458Z</time>
      </trkpt>
      <trkpt lat="47.567846" lon="7.838609">
        <ele>300.941541</ele>
        <time>2021-11-07T12:41:13.893Z</time>
      </trkpt>
      <trkpt lat="47.567936" lon="7.838380">
        <ele>300.880587</ele>
        <time>2021-11-07T12:41:16.352Z</time>
      </trkpt>
      <trkpt lat="47.567961" lon="7.838248">
        <ele>300.823537</ele>
        <time>2021-11-07T12:41:17.722Z</time>
      </trkpt>
      <trkpt lat="47.567944" lon="7.838073">
        <ele>300.744724</ele>
        <time>2021-11-07T12:41:19.326Z</time>
      </trkpt>
      <trkpt lat="47.567822" lon="7.837479">
        <ele>300.467943</ele>
        <time>2021-11-07T12:41:24.754Z</time>
      </trkpt>
      <trkpt lat="47.567670" lon="7.836721">
        <ele>300.115444</ele>
        <time>2021-11-07T12:41:31.344Z</time>
      </trkpt>
      <trkpt lat="47.567647" lon="7.836576">
        <ele>300.049045</ele>
        <time>2021-11-07T12:41:32.620Z</time>
      </trkpt>
      <trkpt lat="47.567583" lon="7.836155">
        <ele>299.856672</ele>
        <time>2021-11-07T12:41:36.303Z</time>
      </trkpt>
      <trkpt lat="47.567562" lon="7.835760">
        <ele>299.681524</ele>
        <time>2021-11-07T12:41:39.813Z</time>
      </trkpt>
      <trkpt lat="47.567562" lon="7.835760">
        <ele>299.681524</ele>
        <time>2021-11-07T12:41:39.815Z</time>
      </trkpt>
      <trkpt lat="47.567566" lon="7.835567">
        <ele>299.611549</ele>
        <time>2021-11-07T12:41:41.486Z</time>
      </trkpt>
      <trkpt lat="47.567674" lon="7.835182">
        <ele>299.460450</ele>
        <time>2021-11-07T12:41:45.126Z</time>
      </trkpt>
      <trkpt lat="47.567558" lon="7.835042">
        <ele>299.380102</ele>
        <time>2021-11-07T12:41:47.142Z</time>
      </trkpt>
      <trkpt lat="47.567179" lon="7.834275">
        <ele>299.035579</ele>
        <time>2021-11-07T12:41:55.469Z</time>
      </trkpt>
      <trkpt lat="47.566744" lon="7.833235">
        <ele>298.709637</ele>
        <time>2021-11-07T12:42:06.690Z</time>
      </trkpt>
      <trkpt lat="47.566366" lon="7.832333">
        <ele>298.673300</ele>
        <time>2021-11-07T12:42:16.974Z</time>
      </trkpt>
      <trkpt lat="47.566013" lon="7.831442">
        <ele>298.637940</ele>
        <time>2021-11-07T12:42:27.604Z</time>
      </trkpt>
      <trkpt lat="47.566005" lon="7.831417">
        <ele>298.636993</ele>
        <time>2021-11-07T12:42:27.935Z</time>
      </trkpt>
      <trkpt lat="47.565741" lon="7.830588">
        <ele>298.766327</ele>
        <time>2021-11-07T12:42:37.391Z</time>
      </trkpt>
      <trkpt lat="47.565639" lon="7.830099">
        <ele>298.861222</ele>
        <time>2021-11-07T12:42:42.951Z</time>
      </trkpt>
      <trkpt lat="47.565511" lon="7.829497">
        <ele>298.978244</ele>
        <time>2021-11-07T12:42:49.847Z</time>
      </trkpt>
      <trkpt lat="47.565384" lon="7.828869">
        <ele>299.099793</ele>
        <time>2021-11-07T12:42:56.856Z</time>
      </trkpt>
      <trkpt lat="47.565225" lon="7.828079">
        <ele>299.798279</ele>
        <time>2021-11-07T12:43:05.553Z</time>
      </trkpt>
      <trkpt lat="47.565215" lon="7.828033">
        <ele>299.845508</ele>
        <time>2021-11-07T12:43:06.065Z</time>
      </trkpt>
      <trkpt lat="47.565115" lon="7.827488">
        <ele>300.397448</ele>
        <time>2021-11-07T12:43:12.863Z</time>
      </trkpt>
      <trkpt lat="47.565054" lon="7.827194">
        <ele>300.698035</ele>
        <time>2021-11-07T12:43:16.836Z</time>
      </trkpt>
      <trkpt lat="47.564863" lon="7.826667">
        <ele>301.282637</ele>
        <time>2021-11-07T12:43:26.191Z</time>
      </trkpt>
      <trkpt lat="47.564836" lon="7.826621">
        <ele>301.342218</ele>
        <time>2021-11-07T12:43:27.169Z</time>
      </trkpt>
      <trkpt lat="47.564805" lon="7.826569">
        <ele>301.410028</ele>
        <time>2021-11-07T12:43:28.378Z</time>
      </trkpt>
      <trkpt lat="47.564837" lon="7.826491">
        <ele>301.499237</ele>
        <time>2021-11-07T12:43:30.367Z</time>
      </trkpt>
      <trkpt lat="47.564804" lon="7.826144">
        <ele>302.004510</ele>
        <time>2021-11-07T12:43:38.245Z</time>
      </trkpt>
      <trkpt lat="47.564761" lon="7.826044">
        <ele>302.289110</ele>
        <time>2021-11-07T12:43:40.872Z</time>
      </trkpt>
      <trkpt lat="47.564726" lon="7.825870">
        <ele>302.724883</ele>
        <time>2021-11-07T12:43:45.355Z</time>
      </trkpt>
      <trkpt lat="47.564632" lon="7.824882">
        <ele>305.119614</ele>
        <time>2021-11-07T12:44:09.531Z</time>
      </trkpt>
      <trkpt lat="47.564621" lon="7.824630">
        <ele>305.725698</ele>
        <time>2021-11-07T12:44:16.161Z</time>
      </trkpt>
      <trkpt lat="47.564603" lon="7.824196">
        <ele>306.769298</ele>
        <time>2021-11-07T12:44:26.747Z</time>
      </trkpt>
      <trkpt lat="47.564596" lon="7.823971">
        <ele>307.309890</ele>
        <time>2021-11-07T12:44:31.974Z</time>
      </trkpt>
      <trkpt lat="47.564551" lon="7.823574">
        <ele>308.178855</ele>
        <time>2021-11-07T12:44:42.213Z</time>
      </trkpt>
      <trkpt lat="47.564531" lon="7.823338">
        <ele>308.376072</ele>
        <time>2021-11-07T12:44:47.583Z</time>
      </trkpt>
      <trkpt lat="47.564338" lon="7.820810">
        <ele>310.180399</ele>
        <time>2021-11-07T12:45:28.372Z</time>
      </trkpt>
      <trkpt lat="47.564264" lon="7.820324">
        <ele>309.740671</ele>
        <time>2021-11-07T12:45:33.903Z</time>
      </trkpt>
      <trkpt lat="47.564207" lon="7.820139">
        <ele>309.561173</ele>
        <time>2021-11-07T12:45:36.106Z</time>
      </trkpt>
      <trkpt lat="47.564083" lon="7.819689">
        <ele>309.132160</ele>
        <time>2021-11-07T12:45:41.387Z</time>
      </trkpt>
      <trkpt lat="47.563846" lon="7.818890">
        <ele>308.361830</ele>
        <time>2021-11-07T12:45:50.831Z</time>
      </trkpt>
      <trkpt lat="47.563292" lon="7.817642">
        <ele>307.177782</ele>
        <time>2021-11-07T12:46:06.988Z</time>
      </trkpt>
      <trkpt lat="47.562585" lon="7.816208">
        <ele>306.020876</ele>
        <time>2021-11-07T12:46:28.182Z</time>
      </trkpt>
      <trkpt lat="47.562165" lon="7.815429">
        <ele>306.316421</ele>
        <time>2021-11-07T12:46:42.473Z</time>
      </trkpt>
      <trkpt lat="47.561915" lon="7.815075">
        <ele>306.468303</ele>
        <time>2021-11-07T12:46:50.460Z</time>
      </trkpt>
      <trkpt lat="47.561796" lon="7.814938">
        <ele>306.534493</ele>
        <time>2021-11-07T12:46:54.076Z</time>
      </trkpt>
      <trkpt lat="47.561285" lon="7.814314">
        <ele>306.815478</ele>
        <time>2021-11-07T12:47:10.146Z</time>
      </trkpt>
      <trkpt lat="47.561222" lon="7.814241">
        <ele>306.845438</ele>
        <time>2021-11-07T12:47:12.274Z</time>
      </trkpt>
      <trkpt lat="47.560566" lon="7.813439">
        <ele>307.164030</ele>
        <time>2021-11-07T12:47:32.857Z</time>
      </trkpt>
      <trkpt lat="47.560089" lon="7.812856">
        <ele>307.395665</ele>
        <time>2021-11-07T12:47:44.376Z</time>
      </trkpt>
      <trkpt lat="47.559685" lon="7.812338">
        <ele>307.142674</ele>
        <time>2021-11-07T12:47:53.852Z</time>
      </trkpt>
      <trkpt lat="47.559556" lon="7.812039">
        <ele>306.983975</ele>
        <time>2021-11-07T12:47:58.160Z</time>
      </trkpt>
      <trkpt lat="47.559352" lon="7.811707">
        <ele>306.783184</ele>
        <time>2021-11-07T12:48:03.348Z</time>
      </trkpt>
      <trkpt lat="47.559226" lon="7.811439">
        <ele>306.637120</ele>
        <time>2021-11-07T12:48:27.644Z</time>
      </trkpt>
      <trkpt lat="47.559209" lon="7.811347">
        <ele>306.594464</ele>
        <time>2021-11-07T12:48:34.718Z</time>
      </trkpt>
      <trkpt lat="47.559195" lon="7.811248">
        <ele>306.549231</ele>
        <time>2021-11-07T12:48:41.753Z</time>
      </trkpt>
      <trkpt lat="47.559169" lon="7.811255">
        <ele>306.531719</ele>
        <time>2021-11-07T12:48:42.540Z</time>
      </trkpt>
      <trkpt lat="47.559109" lon="7.811205">
        <ele>306.486103</ele>
        <time>2021-11-07T12:48:43.476Z</time>
      </trkpt>
      <trkpt lat="47.558535" lon="7.810133">
        <ele>305.947976</ele>
        <time>2021-11-07T12:48:55.482Z</time>
      </trkpt>
      <trkpt lat="47.558370" lon="7.809826">
        <ele>305.807863</ele>
        <time>2021-11-07T12:48:59.065Z</time>
      </trkpt>
      <trkpt lat="47.558021" lon="7.809164">
        <ele>305.507955</ele>
        <time>2021-11-07T12:49:07.439Z</time>
      </trkpt>
      <trkpt lat="47.557309" lon="7.807844">
        <ele>304.135006</ele>
        <time>2021-11-07T12:49:21.316Z</time>
      </trkpt>
      <trkpt lat="47.557003" lon="7.807269">
        <ele>303.349651</ele>
        <time>2021-11-07T12:49:26.852Z</time>
      </trkpt>
      <trkpt lat="47.556616" lon="7.806548">
        <ele>302.338484</ele>
        <time>2021-11-07T12:49:33.529Z</time>
      </trkpt>
      <trkpt lat="47.556451" lon="7.806250">
        <ele>301.785779</ele>
        <time>2021-11-07T12:49:36.398Z</time>
      </trkpt>
      <trkpt lat="47.556315" lon="7.806002">
        <ele>301.327577</ele>
        <time>2021-11-07T12:49:38.735Z</time>
      </trkpt>
      <trkpt lat="47.556119" lon="7.805632">
        <ele>300.653121</ele>
        <time>2021-11-07T12:49:42.176Z</time>
      </trkpt>
      <trkpt lat="47.556046" lon="7.805515">
        <ele>300.424644</ele>
        <time>2021-11-07T12:49:43.361Z</time>
      </trkpt>
      <trkpt lat="47.555971" lon="7.805417">
        <ele>300.212184</ele>
        <time>2021-11-07T12:49:44.441Z</time>
      </trkpt>
      <trkpt lat="47.555886" lon="7.805343">
        <ele>300.002721</ele>
        <time>2021-11-07T12:49:45.494Z</time>
      </trkpt>
      <trkpt lat="47.555741" lon="7.805266">
        <ele>299.675454</ele>
        <time>2021-11-07T12:49:47.214Z</time>
      </trkpt>
      <trkpt lat="47.555230" lon="7.805228">
        <ele>298.591927</ele>
        <time>2021-11-07T12:49:52.733Z</time>
      </trkpt>
      <trkpt lat="47.554916" lon="7.805195">
        <ele>298.039953</ele>
        <time>2021-11-07T12:49:56.133Z</time>
      </trkpt>
      <trkpt lat="47.554809" lon="7.805192">
        <ele>297.852298</ele>
        <time>2021-11-07T12:49:57.282Z</time>
      </trkpt>
      <trkpt lat="47.554810" lon="7.805056">
        <ele>297.691347</ele>
        <time>2021-11-07T12:49:58.784Z</time>
      </trkpt>
      <trkpt lat="47.554808" lon="7.804930">
        <ele>297.542198</ele>
        <time>2021-11-07T12:50:00.058Z</time>
      </trkpt>
      <trkpt lat="47.554769" lon="7.804587">
        <ele>297.130574</ele>
        <time>2021-11-07T12:50:03.770Z</time>
      </trkpt>
      <trkpt lat="47.554726" lon="7.804275">
        <ele>296.753734</ele>
        <time>2021-11-07T12:50:07.165Z</time>
      </trkpt>
      <trkpt lat="47.554639" lon="7.803656">
        <ele>296.005496</ele>
        <time>2021-11-07T12:50:14.192Z</time>
      </trkpt>
      <trkpt lat="47.554459" lon="7.802666">
        <ele>295.327884</ele>
        <time>2021-11-07T12:50:25.779Z</time>
      </trkpt>
      <trkpt lat="47.554402" lon="7.802456">
        <ele>295.276565</ele>
        <time>2021-11-07T12:50:28.798Z</time>
      </trkpt>
      <trkpt lat="47.554367" lon="7.802333">
        <ele>295.246300</ele>
        <time>2021-11-07T12:50:30.556Z</time>
      </trkpt>
      <trkpt lat="47.553823" lon="7.801201">
        <ele>294.931221</ele>
        <time>2021-11-07T12:50:49.578Z</time>
      </trkpt>
      <trkpt lat="47.553782" lon="7.800961">
        <ele>294.875090</ele>
        <time>2021-11-07T12:50:53.241Z</time>
      </trkpt>
      <trkpt lat="47.553794" lon="7.800894">
        <ele>294.859373</ele>
        <time>2021-11-07T12:50:54.017Z</time>
      </trkpt>
      <trkpt lat="47.553712" lon="7.800873">
        <ele>294.798502</ele>
        <time>2021-11-07T12:50:55.731Z</time>
      </trkpt>
      <trkpt lat="47.553618" lon="7.800833">
        <ele>294.709259</ele>
        <time>2021-11-07T12:50:57.965Z</time>
      </trkpt>
      <trkpt lat="47.553550" lon="7.800790">
        <ele>294.641794</ele>
        <time>2021-11-07T12:50:59.774Z</time>
      </trkpt>
      <trkpt lat="47.553424" lon="7.800651">
        <ele>294.498450</ele>
        <time>2021-11-07T12:51:02.620Z</time>
      </trkpt>
      <trkpt lat="47.553292" lon="7.800469">
        <ele>294.333915</ele>
        <time>2021-11-07T12:51:06.717Z</time>
      </trkpt>
      <trkpt lat="47.553160" lon="7.800232">
        <ele>294.144674</ele>
        <time>2021-11-07T12:51:10.453Z</time>
      </trkpt>
      <trkpt lat="47.552829" lon="7.799559">
        <ele>293.631823</ele>
        <time>2021-11-07T12:51:20.182Z</time>
      </trkpt>
      <trkpt lat="47.552439" lon="7.798990">
        <ele>292.934624</ele>
        <time>2021-11-07T12:51:29.053Z</time>
      </trkpt>
      <trkpt lat="47.552289" lon="7.798703">
        <ele>292.136511</ele>
        <time>2021-11-07T12:51:32.695Z</time>
      </trkpt>
      <trkpt lat="47.552186" lon="7.798449">
        <ele>291.484989</ele>
        <time>2021-11-07T12:51:35.685Z</time>
      </trkpt>
      <trkpt lat="47.552152" lon="7.798359">
        <ele>291.258215</ele>
        <time>2021-11-07T12:51:36.604Z</time>
      </trkpt>
      <trkpt lat="47.552120" lon="7.798162">
        <ele>290.812701</ele>
        <time>2021-11-07T12:51:38.680Z</time>
      </trkpt>
      <trkpt lat="47.552084" lon="7.798083">
        <ele>290.603117</ele>
        <time>2021-11-07T12:51:39.581Z</time>
      </trkpt>
      <trkpt lat="47.552147" lon="7.797891">
        <ele>290.133718</ele>
        <time>2021-11-07T12:51:41.034Z</time>
      </trkpt>
      <trkpt lat="47.552152" lon="7.797876">
        <ele>290.096934</ele>
        <time>2021-11-07T12:51:41.129Z</time>
      </trkpt>
      <trkpt lat="47.552493" lon="7.797048">
        <ele>287.964240</ele>
        <time>2021-11-07T12:51:47.560Z</time>
      </trkpt>
      <trkpt lat="47.552762" lon="7.796425">
        <ele>286.665920</ele>
        <time>2021-11-07T12:51:52.509Z</time>
      </trkpt>
      <trkpt lat="47.552817" lon="7.796239">
        <ele>286.364102</ele>
        <time>2021-11-07T12:51:53.919Z</time>
      </trkpt>
      <trkpt lat="47.552886" lon="7.795976">
        <ele>285.944714</ele>
        <time>2021-11-07T12:51:55.917Z</time>
      </trkpt>
      <trkpt lat="47.552930" lon="7.795600">
        <ele>285.377535</ele>
        <time>2021-11-07T12:51:58.795Z</time>
      </trkpt>
      <trkpt lat="47.552917" lon="7.795354">
        <ele>285.010791</ele>
        <time>2021-11-07T12:52:00.713Z</time>
      </trkpt>
      <trkpt lat="47.552909" lon="7.795229">
        <ele>284.824172</ele>
        <time>2021-11-07T12:52:01.694Z</time>
      </trkpt>
      <trkpt lat="47.552892" lon="7.795106">
        <ele>284.637566</ele>
        <time>2021-11-07T12:52:02.609Z</time>
      </trkpt>
      <trkpt lat="47.552861" lon="7.794992">
        <ele>284.454894</ele>
        <time>2021-11-07T12:52:03.488Z</time>
      </trkpt>
      <trkpt lat="47.552837" lon="7.794925">
        <ele>284.342156</ele>
        <time>2021-11-07T12:52:04.093Z</time>
      </trkpt>
      <trkpt lat="47.552826" lon="7.794894">
        <ele>284.290101</ele>
        <time>2021-11-07T12:52:04.358Z</time>
      </trkpt>
      <trkpt lat="47.552786" lon="7.794796">
        <ele>284.119881</ele>
        <time>2021-11-07T12:52:05.199Z</time>
      </trkpt>
      <trkpt lat="47.552763" lon="7.794750">
        <ele>284.034794</ele>
        <time>2021-11-07T12:52:05.720Z</time>
      </trkpt>
      <trkpt lat="47.552644" lon="7.794507">
        <ele>283.588567</ele>
        <time>2021-11-07T12:52:07.960Z</time>
      </trkpt>
      <trkpt lat="47.552644" lon="7.794507">
        <ele>283.588567</ele>
        <time>2021-11-07T12:52:07.992Z</time>
      </trkpt>
      <trkpt lat="47.552532" lon="7.794285">
        <ele>283.327971</ele>
        <time>2021-11-07T12:52:10.160Z</time>
      </trkpt>
      <trkpt lat="47.552494" lon="7.794200">
        <ele>283.284504</ele>
        <time>2021-11-07T12:52:10.960Z</time>
      </trkpt>
      <trkpt lat="47.552384" lon="7.793915">
        <ele>283.144534</ele>
        <time>2021-11-07T12:52:13.724Z</time>
      </trkpt>
      <trkpt lat="47.552369" lon="7.793872">
        <ele>283.123898</ele>
        <time>2021-11-07T12:52:14.361Z</time>
      </trkpt>
      <trkpt lat="47.552292" lon="7.793607">
        <ele>283.000895</ele>
        <time>2021-11-07T12:52:16.718Z</time>
      </trkpt>
      <trkpt lat="47.552233" lon="7.793294">
        <ele>282.862346</ele>
        <time>2021-11-07T12:52:20.210Z</time>
      </trkpt>
      <trkpt lat="47.552216" lon="7.793160">
        <ele>282.804216</ele>
        <time>2021-11-07T12:52:21.346Z</time>
      </trkpt>
      <trkpt lat="47.552198" lon="7.792976">
        <ele>282.724951</ele>
        <time>2021-11-07T12:52:23.141Z</time>
      </trkpt>
      <trkpt lat="47.552184" lon="7.792540">
        <ele>282.538859</ele>
        <time>2021-11-07T12:52:27.441Z</time>
      </trkpt>
      <trkpt lat="47.552180" lon="7.792294">
        <ele>282.433951</ele>
        <time>2021-11-07T12:52:30.069Z</time>
      </trkpt>
      <trkpt lat="47.552182" lon="7.792040">
        <ele>282.325655</ele>
        <time>2021-11-07T12:52:32.235Z</time>
      </trkpt>
      <trkpt lat="47.552201" lon="7.791031">
        <ele>281.821827</ele>
        <time>2021-11-07T12:52:40.733Z</time>
      </trkpt>
      <trkpt lat="47.552135" lon="7.790302">
        <ele>281.443760</ele>
        <time>2021-11-07T12:52:47.161Z</time>
      </trkpt>
      <trkpt lat="47.552036" lon="7.789826">
        <ele>281.187739</ele>
        <time>2021-11-07T12:52:51.491Z</time>
      </trkpt>
      <trkpt lat="47.551858" lon="7.788906">
        <ele>280.603764</ele>
        <time>2021-11-07T12:52:59.419Z</time>
      </trkpt>
      <trkpt lat="47.551712" lon="7.788013">
        <ele>279.899095</ele>
        <time>2021-11-07T12:53:06.853Z</time>
      </trkpt>
      <trkpt lat="47.551694" lon="7.787879">
        <ele>279.794311</ele>
        <time>2021-11-07T12:53:07.967Z</time>
      </trkpt>
      <trkpt lat="47.551690" lon="7.787827">
        <ele>279.754173</ele>
        <time>2021-11-07T12:53:08.393Z</time>
      </trkpt>
      <trkpt lat="47.551672" lon="7.787603">
        <ele>279.581169</ele>
        <time>2021-11-07T12:53:10.146Z</time>
      </trkpt>
      <trkpt lat="47.551629" lon="7.786978">
        <ele>279.099357</ele>
        <time>2021-11-07T12:53:15.179Z</time>
      </trkpt>
      <trkpt lat="47.551498" lon="7.785081">
        <ele>277.909326</ele>
        <time>2021-11-07T12:53:30.622Z</time>
      </trkpt>
      <trkpt lat="47.551479" lon="7.784929">
        <ele>277.817637</ele>
        <time>2021-11-07T12:53:31.886Z</time>
      </trkpt>
      <trkpt lat="47.551510" lon="7.784910">
        <ele>277.788155</ele>
        <time>2021-11-07T12:53:32.363Z</time>
      </trkpt>
      <trkpt lat="47.551531" lon="7.784884">
        <ele>277.764105</ele>
        <time>2021-11-07T12:53:32.722Z</time>
      </trkpt>
      <trkpt lat="47.551548" lon="7.784841">
        <ele>277.734547</ele>
        <time>2021-11-07T12:53:33.207Z</time>
      </trkpt>
      <trkpt lat="47.551554" lon="7.784788">
        <ele>277.702672</ele>
        <time>2021-11-07T12:53:33.694Z</time>
      </trkpt>
      <trkpt lat="47.551547" lon="7.784737">
        <ele>277.671803</ele>
        <time>2021-11-07T12:53:34.157Z</time>
      </trkpt>
      <trkpt lat="47.551525" lon="7.784691">
        <ele>277.638364</ele>
        <time>2021-11-07T12:53:34.643Z</time>
      </trkpt>
      <trkpt lat="47.551500" lon="7.784666">
        <ele>277.611858</ele>
        <time>2021-11-07T12:53:35.027Z</time>
      </trkpt>
      <trkpt lat="47.551472" lon="7.784654">
        <ele>277.586242</ele>
        <time>2021-11-07T12:53:35.405Z</time>
      </trkpt>
      <trkpt lat="47.551437" lon="7.784657">
        <ele>277.555433</ele>
        <time>2021-11-07T12:53:35.842Z</time>
      </trkpt>
      <trkpt lat="47.551439" lon="7.784323">
        <ele>277.357319</ele>
        <time>2021-11-07T12:53:38.853Z</time>
      </trkpt>
      <trkpt lat="47.551306" lon="7.782715">
        <ele>277.014038</ele>
        <time>2021-11-07T12:53:54.094Z</time>
      </trkpt>
      <trkpt lat="47.551302" lon="7.782671">
        <ele>277.006573</ele>
        <time>2021-11-07T12:53:54.483Z</time>
      </trkpt>
      <trkpt lat="47.551230" lon="7.781831">
        <ele>276.864200</ele>
        <time>2021-11-07T12:54:02.706Z</time>
      </trkpt>
      <trkpt lat="47.551198" lon="7.781475">
        <ele>276.801087</ele>
        <time>2021-11-07T12:54:06.178Z</time>
      </trkpt>
      <trkpt lat="47.551270" lon="7.781390">
        <ele>276.768517</ele>
        <time>2021-11-07T12:54:07.961Z</time>
      </trkpt>
      <trkpt lat="47.551208" lon="7.780694">
        <ele>276.600882</ele>
        <time>2021-11-07T12:54:14.658Z</time>
      </trkpt>
      <trkpt lat="47.551085" lon="7.779125">
        <ele>276.223710</ele>
        <time>2021-11-07T12:54:29.098Z</time>
      </trkpt>
      <trkpt lat="47.550982" lon="7.777915">
        <ele>275.982702</ele>
        <time>2021-11-07T12:54:39.663Z</time>
      </trkpt>
      <trkpt lat="47.550963" lon="7.777797">
        <ele>275.959758</ele>
        <time>2021-11-07T12:54:40.672Z</time>
      </trkpt>
      <trkpt lat="47.550817" lon="7.776901">
        <ele>275.785426</ele>
        <time>2021-11-07T12:54:49.380Z</time>
      </trkpt>
      <trkpt lat="47.550782" lon="7.776690">
        <ele>275.744332</ele>
        <time>2021-11-07T12:54:51.442Z</time>
      </trkpt>
      <trkpt lat="47.550607" lon="7.775871">
        <ele>275.819938</ele>
        <time>2021-11-07T12:55:00.788Z</time>
      </trkpt>
      <trkpt lat="47.550598" lon="7.775828">
        <ele>275.834439</ele>
        <time>2021-11-07T12:55:01.272Z</time>
      </trkpt>
      <trkpt lat="47.550505" lon="7.775364">
        <ele>275.990341</ele>
        <time>2021-11-07T12:55:06.788Z</time>
      </trkpt>
      <trkpt lat="47.550320" lon="7.774602">
        <ele>276.251173</ele>
        <time>2021-11-07T12:55:16.250Z</time>
      </trkpt>
      <trkpt lat="47.550090" lon="7.773646">
        <ele>276.563259</ele>
        <time>2021-11-07T12:55:28.124Z</time>
      </trkpt>
      <trkpt lat="47.550061" lon="7.773283">
        <ele>276.645962</ele>
        <time>2021-11-07T12:55:32.261Z</time>
      </trkpt>
      <trkpt lat="47.550203" lon="7.772543">
        <ele>276.820023</ele>
        <time>2021-11-07T12:55:40.472Z</time>
      </trkpt>
      <trkpt lat="47.550199" lon="7.772076">
        <ele>276.925691</ele>
        <time>2021-11-07T12:55:45.446Z</time>
      </trkpt>
      <trkpt lat="47.550069" lon="7.771373">
        <ele>277.090608</ele>
        <time>2021-11-07T12:55:52.988Z</time>
      </trkpt>
      <trkpt lat="47.549845" lon="7.770734">
        <ele>277.431127</ele>
        <time>2021-11-07T12:56:01.039Z</time>
      </trkpt>
      <trkpt lat="47.549714" lon="7.770276">
        <ele>277.707107</ele>
        <time>2021-11-07T12:56:06.831Z</time>
      </trkpt>
      <trkpt lat="47.549678" lon="7.770148">
        <ele>277.784042</ele>
        <time>2021-11-07T12:56:08.544Z</time>
      </trkpt>
      <trkpt lat="47.549416" lon="7.769066">
        <ele>278.421816</ele>
        <time>2021-11-07T12:56:22.631Z</time>
      </trkpt>
      <trkpt lat="47.549363" lon="7.768846">
        <ele>278.551418</ele>
        <time>2021-11-07T12:56:25.848Z</time>
      </trkpt>
      <trkpt lat="47.549184" lon="7.768021">
        <ele>279.118107</ele>
        <time>2021-11-07T12:56:38.126Z</time>
      </trkpt>
      <trkpt lat="47.548990" lon="7.767248">
        <ele>279.668696</ele>
        <time>2021-11-07T12:56:50.026Z</time>
      </trkpt>
      <trkpt lat="47.548565" lon="7.765680">
        <ele>280.008263</ele>
        <time>2021-11-07T12:57:09.101Z</time>
      </trkpt>
      <trkpt lat="47.547909" lon="7.763208">
        <ele>278.084775</ele>
        <time>2021-11-07T12:57:29.975Z</time>
      </trkpt>
      <trkpt lat="47.547848" lon="7.762928">
        <ele>277.769980</ele>
        <time>2021-11-07T12:57:32.119Z</time>
      </trkpt>
      <trkpt lat="47.547848" lon="7.762928">
        <ele>277.769980</ele>
        <time>2021-11-07T12:57:32.122Z</time>
      </trkpt>
      <trkpt lat="47.547778" lon="7.762713">
        <ele>277.514585</ele>
        <time>2021-11-07T12:57:33.963Z</time>
      </trkpt>
      <trkpt lat="47.547577" lon="7.762307">
        <ele>276.975878</ele>
        <time>2021-11-07T12:57:37.730Z</time>
      </trkpt>
      <trkpt lat="47.547194" lon="7.761352">
        <ele>275.871750</ele>
        <time>2021-11-07T12:57:46.241Z</time>
      </trkpt>
      <trkpt lat="47.546989" lon="7.760612">
        <ele>275.809856</ele>
        <time>2021-11-07T12:57:52.714Z</time>
      </trkpt>
      <trkpt lat="47.546948" lon="7.760482">
        <ele>275.798753</ele>
        <time>2021-11-07T12:57:53.962Z</time>
      </trkpt>
      <trkpt lat="47.546870" lon="7.760301">
        <ele>275.782137</ele>
        <time>2021-11-07T12:57:55.863Z</time>
      </trkpt>
      <trkpt lat="47.546804" lon="7.760164">
        <ele>275.769113</ele>
        <time>2021-11-07T12:57:57.315Z</time>
      </trkpt>
      <trkpt lat="47.546552" lon="7.759727">
        <ele>275.724640</ele>
        <time>2021-11-07T12:58:03.299Z</time>
      </trkpt>
      <trkpt lat="47.546312" lon="7.759326">
        <ele>275.683170</ele>
        <time>2021-11-07T12:58:09.663Z</time>
      </trkpt>
      <trkpt lat="47.546264" lon="7.759224">
        <ele>275.673549</ele>
        <time>2021-11-07T12:58:11.297Z</time>
      </trkpt>
      <trkpt lat="47.545911" lon="7.758393">
        <ele>277.557421</ele>
        <time>2021-11-07T12:58:27.697Z</time>
      </trkpt>
      <trkpt lat="47.545677" lon="7.757815">
        <ele>278.875974</ele>
        <time>2021-11-07T12:58:40.149Z</time>
      </trkpt>
      <trkpt lat="47.545429" lon="7.757231">
        <ele>280.225775</ele>
        <time>2021-11-07T12:58:53.456Z</time>
      </trkpt>
      <trkpt lat="47.545360" lon="7.757065">
        <ele>280.607166</ele>
        <time>2021-11-07T12:58:58.115Z</time>
      </trkpt>
      <trkpt lat="47.545326" lon="7.756949">
        <ele>280.854574</ele>
        <time>2021-11-07T12:59:00.866Z</time>
      </trkpt>
      <trkpt lat="47.545304" lon="7.756852">
        <ele>281.055205</ele>
        <time>2021-11-07T12:59:03.067Z</time>
      </trkpt>
      <trkpt lat="47.545260" lon="7.756637">
        <ele>281.495866</ele>
        <time>2021-11-07T12:59:08.125Z</time>
      </trkpt>
      <trkpt lat="47.545021" lon="7.756243">
        <ele>282.534866</ele>
        <time>2021-11-07T12:59:19.214Z</time>
      </trkpt>
      <trkpt lat="47.544022" lon="7.753705">
        <ele>287.349317</ele>
        <time>2021-11-07T13:00:07.685Z</time>
      </trkpt>
      <trkpt lat="47.543798" lon="7.753068">
        <ele>288.147024</ele>
        <time>2021-11-07T13:00:17.424Z</time>
      </trkpt>
      <trkpt lat="47.543319" lon="7.751355">
        <ele>289.475376</ele>
        <time>2021-11-07T13:00:40.591Z</time>
      </trkpt>
      <trkpt lat="47.543222" lon="7.751091">
        <ele>289.594302</ele>
        <time>2021-11-07T13:00:43.855Z</time>
      </trkpt>
      <trkpt lat="47.543115" lon="7.750826">
        <ele>289.716478</ele>
        <time>2021-11-07T13:00:48.612Z</time>
      </trkpt>
      <trkpt lat="47.543033" lon="7.750614">
        <ele>289.813153</ele>
        <time>2021-11-07T13:00:51.188Z</time>
      </trkpt>
      <trkpt lat="47.542774" lon="7.750084">
        <ele>290.072038</ele>
        <time>2021-11-07T13:00:58.525Z</time>
      </trkpt>
      <trkpt lat="47.542614" lon="7.749755">
        <ele>290.130387</ele>
        <time>2021-11-07T13:01:02.729Z</time>
      </trkpt>
      <trkpt lat="47.542390" lon="7.749307">
        <ele>290.141181</ele>
        <time>2021-11-07T13:01:08.542Z</time>
      </trkpt>
      <trkpt lat="47.542347" lon="7.749227">
        <ele>290.143161</ele>
        <time>2021-11-07T13:01:10.093Z</time>
      </trkpt>
      <trkpt lat="47.542132" lon="7.748742">
        <ele>290.154394</ele>
        <time>2021-11-07T13:01:17.657Z</time>
      </trkpt>
      <trkpt lat="47.541758" lon="7.747784">
        <ele>290.175819</ele>
        <time>2021-11-07T13:01:32.357Z</time>
      </trkpt>
      <trkpt lat="47.541583" lon="7.747186">
        <ele>290.196069</ele>
        <time>2021-11-07T13:01:41.536Z</time>
      </trkpt>
      <trkpt lat="47.541511" lon="7.746885">
        <ele>290.206277</ele>
        <time>2021-11-07T13:01:46.007Z</time>
      </trkpt>
      <trkpt lat="47.541432" lon="7.746552">
        <ele>290.217561</ele>
        <time>2021-11-07T13:01:51.118Z</time>
      </trkpt>
      <trkpt lat="47.541167" lon="7.745463">
        <ele>290.254567</ele>
        <time>2021-11-07T13:02:06.929Z</time>
      </trkpt>
      <trkpt lat="47.541160" lon="7.745250">
        <ele>290.261384</ele>
        <time>2021-11-07T13:02:09.782Z</time>
      </trkpt>
      <trkpt lat="47.541148" lon="7.745144">
        <ele>290.264643</ele>
        <time>2021-11-07T13:02:11.311Z</time>
      </trkpt>
      <trkpt lat="47.541130" lon="7.745083">
        <ele>290.266643</ele>
        <time>2021-11-07T13:02:12.233Z</time>
      </trkpt>
      <trkpt lat="47.541038" lon="7.744940">
        <ele>290.272577</ele>
        <time>2021-11-07T13:02:14.616Z</time>
      </trkpt>
      <trkpt lat="47.541019" lon="7.744859">
        <ele>290.275152</ele>
        <time>2021-11-07T13:02:15.853Z</time>
      </trkpt>
      <trkpt lat="47.540913" lon="7.744421">
        <ele>290.289129</ele>
        <time>2021-11-07T13:02:22.404Z</time>
      </trkpt>
      <trkpt lat="47.540738" lon="7.743641">
        <ele>290.313819</ele>
        <time>2021-11-07T13:02:34.232Z</time>
      </trkpt>
      <trkpt lat="47.540617" lon="7.742875">
        <ele>290.337449</ele>
        <time>2021-11-07T13:02:45.183Z</time>
      </trkpt>
      <trkpt lat="47.540589" lon="7.742558">
        <ele>290.265978</ele>
        <time>2021-11-07T13:02:49.557Z</time>
      </trkpt>
      <trkpt lat="47.540552" lon="7.742240">
        <ele>290.122285</ele>
        <time>2021-11-07T13:02:53.815Z</time>
      </trkpt>
      <trkpt lat="47.540547" lon="7.742165">
        <ele>290.088725</ele>
        <time>2021-11-07T13:02:54.815Z</time>
      </trkpt>
      <trkpt lat="47.540438" lon="7.740453">
        <ele>289.322985</ele>
        <time>2021-11-07T13:03:15.670Z</time>
      </trkpt>
      <trkpt lat="47.540374" lon="7.739620">
        <ele>288.794051</ele>
        <time>2021-11-07T13:03:25.123Z</time>
      </trkpt>
      <trkpt lat="47.540372" lon="7.739490">
        <ele>288.692370</ele>
        <time>2021-11-07T13:03:26.671Z</time>
      </trkpt>
      <trkpt lat="47.540387" lon="7.739372">
        <ele>288.598478</ele>
        <time>2021-11-07T13:03:28.157Z</time>
      </trkpt>
      <trkpt lat="47.540394" lon="7.739259">
        <ele>288.509745</ele>
        <time>2021-11-07T13:03:29.486Z</time>
      </trkpt>
      <trkpt lat="47.540388" lon="7.739213">
        <ele>288.473110</ele>
        <time>2021-11-07T13:03:29.878Z</time>
      </trkpt>
      <trkpt lat="47.540032" lon="7.737141">
        <ele>287.096854</ele>
        <time>2021-11-07T13:03:54.401Z</time>
      </trkpt>
      <trkpt lat="47.539305" lon="7.734151">
        <ele>287.686362</ele>
        <time>2021-11-07T13:04:41.194Z</time>
      </trkpt>
      <trkpt lat="47.539263" lon="7.733885">
        <ele>287.820879</ele>
        <time>2021-11-07T13:04:45.595Z</time>
      </trkpt>
      <trkpt lat="47.539178" lon="7.733656">
        <ele>287.949561</ele>
        <time>2021-11-07T13:04:49.745Z</time>
      </trkpt>
      <trkpt lat="47.538887" lon="7.732454">
        <ele>288.577701</ele>
        <time>2021-11-07T13:05:10.432Z</time>
      </trkpt>
      <trkpt lat="47.538512" lon="7.730958">
        <ele>289.218363</ele>
        <time>2021-11-07T13:05:35.936Z</time>
      </trkpt>
      <trkpt lat="47.538339" lon="7.730082">
        <ele>289.584790</ele>
        <time>2021-11-07T13:05:49.301Z</time>
      </trkpt>
      <trkpt lat="47.538275" lon="7.729744">
        <ele>289.513680</ele>
        <time>2021-11-07T13:05:54.150Z</time>
      </trkpt>
      <trkpt lat="47.538248" lon="7.729713">
        <ele>289.480985</ele>
        <time>2021-11-07T13:05:54.768Z</time>
      </trkpt>
      <trkpt lat="47.538168" lon="7.729263">
        <ele>289.180315</ele>
        <time>2021-11-07T13:06:00.846Z</time>
      </trkpt>
      <trkpt lat="47.538148" lon="7.729131">
        <ele>289.092905</ele>
        <time>2021-11-07T13:06:02.524Z</time>
      </trkpt>
      <trkpt lat="47.538123" lon="7.729100">
        <ele>289.061700</ele>
        <time>2021-11-07T13:06:03.120Z</time>
      </trkpt>
      <trkpt lat="47.538083" lon="7.728919">
        <ele>288.938645</ele>
        <time>2021-11-07T13:06:05.454Z</time>
      </trkpt>
      <trkpt lat="47.538060" lon="7.728766">
        <ele>288.837366</ele>
        <time>2021-11-07T13:06:07.407Z</time>
      </trkpt>
      <trkpt lat="47.537932" lon="7.727936">
        <ele>288.287263</ele>
        <time>2021-11-07T13:06:17.267Z</time>
      </trkpt>
      <trkpt lat="47.537861" lon="7.727909">
        <ele>288.217106</ele>
        <time>2021-11-07T13:06:18.452Z</time>
      </trkpt>
      <trkpt lat="47.537824" lon="7.727674">
        <ele>288.061191</ele>
        <time>2021-11-07T13:06:20.305Z</time>
      </trkpt>
      <trkpt lat="47.537675" lon="7.726458">
        <ele>285.646591</ele>
        <time>2021-11-07T13:06:29.248Z</time>
      </trkpt>
      <trkpt lat="47.537323" lon="7.724748">
        <ele>281.673156</ele>
        <time>2021-11-07T13:06:40.991Z</time>
      </trkpt>
      <trkpt lat="47.537127" lon="7.723974">
        <ele>279.880551</ele>
        <time>2021-11-07T13:06:46.428Z</time>
      </trkpt>
      <trkpt lat="47.537106" lon="7.723875">
        <ele>279.655521</ele>
        <time>2021-11-07T13:06:47.111Z</time>
      </trkpt>
      <trkpt lat="47.537075" lon="7.723694">
        <ele>279.250589</ele>
        <time>2021-11-07T13:06:48.340Z</time>
      </trkpt>
      <trkpt lat="47.536854" lon="7.722329">
        <ele>276.207706</ele>
        <time>2021-11-07T13:06:58.254Z</time>
      </trkpt>
      <trkpt lat="47.536667" lon="7.721718">
        <ele>275.084826</ele>
        <time>2021-11-07T13:07:03.377Z</time>
      </trkpt>
      <trkpt lat="47.536590" lon="7.721558">
        <ele>274.755938</ele>
        <time>2021-11-07T13:07:04.893Z</time>
      </trkpt>
      <trkpt lat="47.536471" lon="7.721389">
        <ele>274.347203</ele>
        <time>2021-11-07T13:07:06.822Z</time>
      </trkpt>
      <trkpt lat="47.536092" lon="7.720862">
        <ele>273.058384</ele>
        <time>2021-11-07T13:07:12.209Z</time>
      </trkpt>
      <trkpt lat="47.535988" lon="7.720671">
        <ele>272.647660</ele>
        <time>2021-11-07T13:07:13.869Z</time>
      </trkpt>
      <trkpt lat="47.535897" lon="7.720461">
        <ele>272.229978</ele>
        <time>2021-11-07T13:07:15.573Z</time>
      </trkpt>
      <trkpt lat="47.535876" lon="7.720409">
        <ele>272.128555</ele>
        <time>2021-11-07T13:07:15.989Z</time>
      </trkpt>
      <trkpt lat="47.535806" lon="7.720212">
        <ele>271.755926</ele>
        <time>2021-11-07T13:07:17.518Z</time>
      </trkpt>
      <trkpt lat="47.535746" lon="7.719899">
        <ele>271.283766</ele>
        <time>2021-11-07T13:07:19.819Z</time>
      </trkpt>
      <trkpt lat="47.535713" lon="7.719682">
        <ele>270.961344</ele>
        <time>2021-11-07T13:07:21.363Z</time>
      </trkpt>
      <trkpt lat="47.535661" lon="7.719317">
        <ele>270.420626</ele>
        <time>2021-11-07T13:07:24.082Z</time>
      </trkpt>
      <trkpt lat="47.535608" lon="7.718948">
        <ele>269.873790</ele>
        <time>2021-11-07T13:07:26.849Z</time>
      </trkpt>
      <trkpt lat="47.535572" lon="7.718705">
        <ele>269.513181</ele>
        <time>2021-11-07T13:07:28.555Z</time>
      </trkpt>
      <trkpt lat="47.535558" lon="7.718578">
        <ele>269.326657</ele>
        <time>2021-11-07T13:07:29.642Z</time>
      </trkpt>
      <trkpt lat="47.535516" lon="7.718273">
        <ele>268.875456</ele>
        <time>2021-11-07T13:07:31.875Z</time>
      </trkpt>
      <trkpt lat="47.535494" lon="7.718111">
        <ele>268.635933</ele>
        <time>2021-11-07T13:07:33.033Z</time>
      </trkpt>
      <trkpt lat="47.535490" lon="7.718086">
        <ele>268.598692</ele>
        <time>2021-11-07T13:07:33.559Z</time>
      </trkpt>
      <trkpt lat="47.535419" lon="7.717562">
        <ele>267.912730</ele>
        <time>2021-11-07T13:07:37.580Z</time>
      </trkpt>
      <trkpt lat="47.535384" lon="7.717243">
        <ele>268.071484</ele>
        <time>2021-11-07T13:07:40.206Z</time>
      </trkpt>
      <trkpt lat="47.535370" lon="7.716931">
        <ele>268.225081</ele>
        <time>2021-11-07T13:07:43.481Z</time>
      </trkpt>
      <trkpt lat="47.535347" lon="7.716584">
        <ele>268.396353</ele>
        <time>2021-11-07T13:07:47.101Z</time>
      </trkpt>
      <trkpt lat="47.535313" lon="7.716133">
        <ele>268.619268</ele>
        <time>2021-11-07T13:07:53.991Z</time>
      </trkpt>
      <trkpt lat="47.535254" lon="7.715336">
        <ele>269.013114</ele>
        <time>2021-11-07T13:08:05.877Z</time>
      </trkpt>
      <trkpt lat="47.535269" lon="7.714924">
        <ele>269.221117</ele>
        <time>2021-11-07T13:08:11.853Z</time>
      </trkpt>
      <trkpt lat="47.535269" lon="7.714705">
        <ele>269.362695</ele>
        <time>2021-11-07T13:08:14.831Z</time>
      </trkpt>
      <trkpt lat="47.535269" lon="7.714432">
        <ele>269.539183</ele>
        <time>2021-11-07T13:08:18.496Z</time>
      </trkpt>
      <trkpt lat="47.535161" lon="7.714367">
        <ele>269.650809</ele>
        <time>2021-11-07T13:08:20.766Z</time>
      </trkpt>
      <trkpt lat="47.534963" lon="7.714247">
        <ele>269.855661</ele>
        <time>2021-11-07T13:08:25.092Z</time>
      </trkpt>
      <trkpt lat="47.534744" lon="7.714106">
        <ele>270.084318</ele>
        <time>2021-11-07T13:08:29.357Z</time>
      </trkpt>
      <trkpt lat="47.534617" lon="7.714014">
        <ele>270.219692</ele>
        <time>2021-11-07T13:08:31.985Z</time>
      </trkpt>
      <trkpt lat="47.534388" lon="7.713828">
        <ele>270.469776</ele>
        <time>2021-11-07T13:08:36.322Z</time>
      </trkpt>
      <trkpt lat="47.534242" lon="7.713132">
        <ele>270.934999</ele>
        <time>2021-11-07T13:08:44.759Z</time>
      </trkpt>
      <trkpt lat="47.534103" lon="7.712557">
        <ele>271.210774</ele>
        <time>2021-11-07T13:08:52.024Z</time>
      </trkpt>
      <trkpt lat="47.533850" lon="7.712715">
        <ele>271.394404</ele>
        <time>2021-11-07T13:08:56.864Z</time>
      </trkpt>
      <trkpt lat="47.533712" lon="7.712802">
        <ele>271.494711</ele>
        <time>2021-11-07T13:08:59.570Z</time>
      </trkpt>
      <trkpt lat="47.533585" lon="7.712861">
        <ele>271.583728</ele>
        <time>2021-11-07T13:09:01.853Z</time>
      </trkpt>
      <trkpt lat="47.533204" lon="7.712930">
        <ele>271.840437</ele>
        <time>2021-11-07T13:09:08.491Z</time>
      </trkpt>
      <trkpt lat="47.532918" lon="7.712834">
        <ele>272.036563</ele>
        <time>2021-11-07T13:09:13.515Z</time>
      </trkpt>
      <trkpt lat="47.532835" lon="7.712791">
        <ele>272.095371</ele>
        <time>2021-11-07T13:09:15.031Z</time>
      </trkpt>
      <trkpt lat="47.532756" lon="7.712690">
        <ele>272.178369</ele>
        <time>2021-11-07T13:09:17.052Z</time>
      </trkpt>
      <trkpt lat="47.532382" lon="7.712125">
        <ele>272.650641</ele>
        <time>2021-11-07T13:09:26.517Z</time>
      </trkpt>
      <trkpt lat="47.531932" lon="7.711461">
        <ele>273.212185</ele>
        <time>2021-11-07T13:09:38.766Z</time>
      </trkpt>
      <trkpt lat="47.531434" lon="7.710621">
        <ele>273.773612</ele>
        <time>2021-11-07T13:09:52.486Z</time>
      </trkpt>
      <trkpt lat="47.531400" lon="7.710563">
        <ele>273.790099</ele>
        <time>2021-11-07T13:09:53.720Z</time>
      </trkpt>
      <trkpt lat="47.531289" lon="7.710373">
        <ele>273.844027</ele>
        <time>2021-11-07T13:09:56.478Z</time>
      </trkpt>
      <trkpt lat="47.531278" lon="7.710355">
        <ele>273.849238</ele>
        <time>2021-11-07T13:09:56.879Z</time>
      </trkpt>
      <trkpt lat="47.531138" lon="7.710116">
        <ele>273.917151</ele>
        <time>2021-11-07T13:10:00.295Z</time>
      </trkpt>
      <trkpt lat="47.531138" lon="7.710116">
        <ele>273.917151</ele>
        <time>2021-11-07T13:10:00.299Z</time>
      </trkpt>
      <trkpt lat="47.531092" lon="7.710037">
        <ele>273.939542</ele>
        <time>2021-11-07T13:10:01.194Z</time>
      </trkpt>
      <trkpt lat="47.531010" lon="7.709856">
        <ele>273.986327</ele>
        <time>2021-11-07T13:10:04.109Z</time>
      </trkpt>
      <trkpt lat="47.530924" lon="7.709643">
        <ele>274.039596</ele>
        <time>2021-11-07T13:10:06.839Z</time>
      </trkpt>
      <trkpt lat="47.530863" lon="7.709389">
        <ele>274.097460</ele>
        <time>2021-11-07T13:10:09.949Z</time>
      </trkpt>
      <trkpt lat="47.530680" lon="7.709102">
        <ele>274.182190</ele>
        <time>2021-11-07T13:10:13.682Z</time>
      </trkpt>
      <trkpt lat="47.530477" lon="7.708668">
        <ele>274.281950</ele>
        <time>2021-11-07T13:10:18.851Z</time>
      </trkpt>
      <trkpt lat="47.530376" lon="7.708542">
        <ele>274.264213</ele>
        <time>2021-11-07T13:10:21.251Z</time>
      </trkpt>
      <trkpt lat="47.530323" lon="7.708234">
        <ele>274.235387</ele>
        <time>2021-11-07T13:10:24.799Z</time>
      </trkpt>
      <trkpt lat="47.530376" lon="7.708542">
        <ele>274.206561</ele>
        <time>2021-11-07T13:10:29.468Z</time>
      </trkpt>
      <trkpt lat="47.530090" lon="7.708115">
        <ele>274.152014</ele>
        <time>2021-11-07T13:10:35.031Z</time>
      </trkpt>
      <trkpt lat="47.530040" lon="7.708071">
        <ele>274.144202</ele>
        <time>2021-11-07T13:10:35.707Z</time>
      </trkpt>
      <trkpt lat="47.529814" lon="7.708010">
        <ele>274.113346</ele>
        <time>2021-11-07T13:10:39.427Z</time>
      </trkpt>
      <trkpt lat="47.528916" lon="7.707267">
        <ele>274.072698</ele>
        <time>2021-11-07T13:10:54.342Z</time>
      </trkpt>
      <trkpt lat="47.528783" lon="7.707096">
        <ele>274.082376</ele>
        <time>2021-11-07T13:10:57.126Z</time>
      </trkpt>
      <trkpt lat="47.528280" lon="7.706338">
        <ele>274.121806</ele>
        <time>2021-11-07T13:11:07.913Z</time>
      </trkpt>
      <trkpt lat="47.527953" lon="7.705596">
        <ele>274.236426</ele>
        <time>2021-11-07T13:11:16.788Z</time>
      </trkpt>
      <trkpt lat="47.527843" lon="7.705480">
        <ele>274.296758</ele>
        <time>2021-11-07T13:11:19.302Z</time>
      </trkpt>
      <trkpt lat="47.527726" lon="7.705561">
        <ele>274.354461</ele>
        <time>2021-11-07T13:11:21.223Z</time>
      </trkpt>
      <trkpt lat="47.527591" lon="7.705744">
        <ele>274.436228</ele>
        <time>2021-11-07T13:11:24.279Z</time>
      </trkpt>
      <trkpt lat="47.527501" lon="7.705847">
        <ele>274.487045</ele>
        <time>2021-11-07T13:11:26.081Z</time>
      </trkpt>
      <trkpt lat="47.527348" lon="7.705987">
        <ele>274.567398</ele>
        <time>2021-11-07T13:11:28.714Z</time>
      </trkpt>
      <trkpt lat="47.527314" lon="7.705980">
        <ele>274.582734</ele>
        <time>2021-11-07T13:11:29.571Z</time>
      </trkpt>
      <trkpt lat="47.526914" lon="7.705009">
        <ele>274.925880</ele>
        <time>2021-11-07T13:11:42.132Z</time>
      </trkpt>
      <trkpt lat="47.526775" lon="7.704691">
        <ele>275.521055</ele>
        <time>2021-11-07T13:11:46.622Z</time>
      </trkpt>
      <trkpt lat="47.526360" lon="7.704025">
        <ele>277.202899</ele>
        <time>2021-11-07T13:12:00.108Z</time>
      </trkpt>
      <trkpt lat="47.526313" lon="7.703953">
        <ele>277.388750</ele>
        <time>2021-11-07T13:12:01.722Z</time>
      </trkpt>
      <trkpt lat="47.526010" lon="7.703497">
        <ele>278.576043</ele>
        <time>2021-11-07T13:12:13.891Z</time>
      </trkpt>
      <trkpt lat="47.525589" lon="7.702861">
        <ele>280.440190</ele>
        <time>2021-11-07T13:12:34.255Z</time>
      </trkpt>
      <trkpt lat="47.525119" lon="7.702443">
        <ele>282.886753</ele>
        <time>2021-11-07T13:12:52.508Z</time>
      </trkpt>
      <trkpt lat="47.524997" lon="7.702331">
        <ele>283.527310</ele>
        <time>2021-11-07T13:12:58.100Z</time>
      </trkpt>
      <trkpt lat="47.524706" lon="7.702264">
        <ele>284.841513</ele>
        <time>2021-11-07T13:13:08.124Z</time>
      </trkpt>
      <trkpt lat="47.524615" lon="7.702250">
        <ele>285.249790</ele>
        <time>2021-11-07T13:13:11.268Z</time>
      </trkpt>
      <trkpt lat="47.524401" lon="7.702218">
        <ele>286.209632</ele>
        <time>2021-11-07T13:13:18.125Z</time>
      </trkpt>
      <trkpt lat="47.524013" lon="7.702161">
        <ele>287.929321</ele>
        <time>2021-11-07T13:13:30.230Z</time>
      </trkpt>
      <trkpt lat="47.523926" lon="7.702155">
        <ele>288.078332</ele>
        <time>2021-11-07T13:13:32.964Z</time>
      </trkpt>
      <trkpt lat="47.523800" lon="7.702197">
        <ele>288.299301</ele>
        <time>2021-11-07T13:13:36.362Z</time>
      </trkpt>
      <trkpt lat="47.523758" lon="7.702269">
        <ele>288.409225</ele>
        <time>2021-11-07T13:13:38.004Z</time>
      </trkpt>
      <trkpt lat="47.523683" lon="7.702416">
        <ele>288.622088</ele>
        <time>2021-11-07T13:13:41.919Z</time>
      </trkpt>
      <trkpt lat="47.523539" lon="7.702744">
        <ele>289.074091</ele>
        <time>2021-11-07T13:13:48.649Z</time>
      </trkpt>
      <trkpt lat="47.523476" lon="7.702988">
        <ele>289.375903</ele>
        <time>2021-11-07T13:13:52.005Z</time>
      </trkpt>
      <trkpt lat="47.523207" lon="7.702948">
        <ele>289.838453</ele>
        <time>2021-11-07T13:13:57.426Z</time>
      </trkpt>
      <trkpt lat="47.523064" lon="7.702927">
        <ele>290.084314</ele>
        <time>2021-11-07T13:13:59.884Z</time>
      </trkpt>
      <trkpt lat="47.522974" lon="7.702913">
        <ele>290.239144</ele>
        <time>2021-11-07T13:14:01.399Z</time>
      </trkpt>
      <trkpt lat="47.522297" lon="7.702808">
        <ele>291.020378</ele>
        <time>2021-11-07T13:14:12.253Z</time>
      </trkpt>
      <trkpt lat="47.521475" lon="7.702832">
        <ele>291.110811</ele>
        <time>2021-11-07T13:14:24.545Z</time>
      </trkpt>
      <trkpt lat="47.521318" lon="7.702862">
        <ele>291.128224</ele>
        <time>2021-11-07T13:14:27.054Z</time>
      </trkpt>
      <trkpt lat="47.521296" lon="7.702344">
        <ele>291.166778</ele>
        <time>2021-11-07T13:14:34.154Z</time>
      </trkpt>
      <trkpt lat="47.521305" lon="7.701161">
        <ele>291.204400</ele>
        <time>2021-11-07T13:14:50.161Z</time>
      </trkpt>
      <trkpt lat="47.521300" lon="7.700547">
        <ele>291.213497</ele>
        <time>2021-11-07T13:14:58.363Z</time>
      </trkpt>
      <trkpt lat="47.521295" lon="7.699754">
        <ele>291.225246</ele>
        <time>2021-11-07T13:15:09.122Z</time>
      </trkpt>
      <trkpt lat="47.521295" lon="7.699754">
        <ele>291.225246</ele>
        <time>2021-11-07T13:15:09.124Z</time>
      </trkpt>
      <trkpt lat="47.521000" lon="7.699740">
        <ele>291.258039</ele>
        <time>2021-11-07T13:15:13.754Z</time>
      </trkpt>
      <trkpt lat="47.520505" lon="7.699737">
        <ele>292.013924</ele>
        <time>2021-11-07T13:15:21.807Z</time>
      </trkpt>
      <trkpt lat="47.520071" lon="7.699747">
        <ele>292.676734</ele>
        <time>2021-11-07T13:15:29.661Z</time>
      </trkpt>
      <trkpt lat="47.519797" lon="7.699745">
        <ele>293.095145</ele>
        <time>2021-11-07T13:15:34.806Z</time>
      </trkpt>
      <trkpt lat="47.519087" lon="7.699786">
        <ele>294.776626</ele>
        <time>2021-11-07T13:15:52.468Z</time>
      </trkpt>
      <trkpt lat="47.518929" lon="7.699688">
        <ele>295.809685</ele>
        <time>2021-11-07T13:15:58.550Z</time>
      </trkpt>
      <trkpt lat="47.518494" lon="7.699738">
        <ele>298.440903</ele>
        <time>2021-11-07T13:16:15.628Z</time>
      </trkpt>
      <trkpt lat="47.518261" lon="7.699822">
        <ele>299.887089</ele>
        <time>2021-11-07T13:16:25.053Z</time>
      </trkpt>
      <trkpt lat="47.518182" lon="7.699850">
        <ele>300.376968</ele>
        <time>2021-11-07T13:16:28.146Z</time>
      </trkpt>
      <trkpt lat="47.518170" lon="7.699856">
        <ele>300.453350</ele>
        <time>2021-11-07T13:16:28.661Z</time>
      </trkpt>
      <trkpt lat="47.517928" lon="7.699966">
        <ele>301.979981</ele>
        <time>2021-11-07T13:16:38.550Z</time>
      </trkpt>
      <trkpt lat="47.517302" lon="7.700251">
        <ele>306.603588</ele>
        <time>2021-11-07T13:17:08.362Z</time>
      </trkpt>
      <trkpt lat="47.517302" lon="7.700251">
        <ele>306.603588</ele>
        <time>2021-11-07T13:17:08.422Z</time>
      </trkpt>
      <trkpt lat="47.517302" lon="7.700251">
        <ele>306.603588</ele>
        <time>2021-11-07T13:17:08.428Z</time>
      </trkpt>
      <trkpt lat="47.517287" lon="7.700296">
        <ele>306.932678</ele>
        <time>2021-11-07T13:17:09.866Z</time>
      </trkpt>
      <trkpt lat="47.517479" lon="7.701386">
        <ele>314.319858</ele>
        <time>2021-11-07T13:17:51.570Z</time>
      </trkpt>
      <trkpt lat="47.517516" lon="7.701729">
        <ele>316.597707</ele>
        <time>2021-11-07T13:18:06.135Z</time>
      </trkpt>
      <trkpt lat="47.517522" lon="7.701805">
        <ele>317.099496</ele>
        <time>2021-11-07T13:18:09.355Z</time>
      </trkpt>
      <trkpt lat="47.517519" lon="7.701866">
        <ele>317.500583</ele>
        <time>2021-11-07T13:18:11.450Z</time>
      </trkpt>
      <trkpt lat="47.517510" lon="7.701940">
        <ele>317.993669</ele>
        <time>2021-11-07T13:18:14.196Z</time>
      </trkpt>
      <trkpt lat="47.517495" lon="7.701974">
        <ele>318.259992</ele>
        <time>2021-11-07T13:18:16.927Z</time>
      </trkpt>
      <trkpt lat="47.517412" lon="7.702061">
        <ele>319.247432</ele>
        <time>2021-11-07T13:18:22.239Z</time>
      </trkpt>
      <trkpt lat="47.517231" lon="7.702215">
        <ele>321.274449</ele>
        <time>2021-11-07T13:18:33.166Z</time>
      </trkpt>
      <trkpt lat="47.516723" lon="7.702621">
        <ele>326.428393</ele>
        <time>2021-11-07T13:19:03.713Z</time>
      </trkpt>
      <trkpt lat="47.516538" lon="7.702808">
        <ele>328.389506</ele>
        <time>2021-11-07T13:19:16.365Z</time>
      </trkpt>
      <trkpt lat="47.516419" lon="7.702927">
        <ele>329.646706</ele>
        <time>2021-11-07T13:19:23.685Z</time>
      </trkpt>
      <trkpt lat="47.516272" lon="7.703033">
        <ele>331.078202</ele>
        <time>2021-11-07T13:19:32.172Z</time>
      </trkpt>
      <trkpt lat="47.516154" lon="7.703082">
        <ele>332.151153</ele>
        <time>2021-11-07T13:19:39.206Z</time>
      </trkpt>
      <trkpt lat="47.516104" lon="7.703098">
        <ele>332.599010</ele>
        <time>2021-11-07T13:19:41.805Z</time>
      </trkpt>
      <trkpt lat="47.516014" lon="7.703140">
        <ele>333.425171</ele>
        <time>2021-11-07T13:19:46.332Z</time>
      </trkpt>
      <trkpt lat="47.515843" lon="7.703186">
        <ele>334.946786</ele>
        <time>2021-11-07T13:19:54.492Z</time>
      </trkpt>
      <trkpt lat="47.515591" lon="7.703343">
        <ele>337.340406</ele>
        <time>2021-11-07T13:20:06.327Z</time>
      </trkpt>
      <trkpt lat="47.515436" lon="7.703718">
        <ele>339.150788</ele>
        <time>2021-11-07T13:20:19.047Z</time>
      </trkpt>
      <trkpt lat="47.515041" lon="7.704901">
        <ele>343.717791</ele>
        <time>2021-11-07T13:20:49.171Z</time>
      </trkpt>
      <trkpt lat="47.514902" lon="7.705363">
        <ele>345.468112</ele>
        <time>2021-11-07T13:20:59.808Z</time>
      </trkpt>
      <trkpt lat="47.514894" lon="7.705674">
        <ele>346.545181</ele>
        <time>2021-11-07T13:21:07.008Z</time>
      </trkpt>
      <trkpt lat="47.514825" lon="7.706411">
        <ele>348.697569</ele>
        <time>2021-11-07T13:21:23.159Z</time>
      </trkpt>
      <trkpt lat="47.514814" lon="7.706527">
        <ele>349.011198</ele>
        <time>2021-11-07T13:21:25.809Z</time>
      </trkpt>
      <trkpt lat="47.514743" lon="7.706635">
        <ele>349.414727</ele>
        <time>2021-11-07T13:21:29.725Z</time>
      </trkpt>
      <trkpt lat="47.514666" lon="7.706740">
        <ele>349.829709</ele>
        <time>2021-11-07T13:21:33.157Z</time>
      </trkpt>
      <trkpt lat="47.514343" lon="7.706915">
        <ele>351.193192</ele>
        <time>2021-11-07T13:21:44.987Z</time>
      </trkpt>
      <trkpt lat="47.513734" lon="7.707203">
        <ele>353.727567</ele>
        <time>2021-11-07T13:22:04.017Z</time>
      </trkpt>
      <trkpt lat="47.513611" lon="7.707363">
        <ele>354.376628</ele>
        <time>2021-11-07T13:22:08.048Z</time>
      </trkpt>
      <trkpt lat="47.513371" lon="7.707878">
        <ele>354.038222</ele>
        <time>2021-11-07T13:22:18.294Z</time>
      </trkpt>
      <trkpt lat="47.513290" lon="7.708040">
        <ele>353.926569</ele>
        <time>2021-11-07T13:22:20.852Z</time>
      </trkpt>
      <trkpt lat="47.513067" lon="7.708501">
        <ele>353.612460</ele>
        <time>2021-11-07T13:22:26.877Z</time>
      </trkpt>
      <trkpt lat="47.512389" lon="7.709762">
        <ele>351.564877</ele>
        <time>2021-11-07T13:22:38.032Z</time>
      </trkpt>
      <trkpt lat="47.511227" lon="7.711226">
        <ele>342.652803</ele>
        <time>2021-11-07T13:22:51.835Z</time>
      </trkpt>
      <trkpt lat="47.511160" lon="7.711279">
        <ele>342.267751</ele>
        <time>2021-11-07T13:22:52.479Z</time>
      </trkpt>
      <trkpt lat="47.511059" lon="7.711359">
        <ele>341.801596</ele>
        <time>2021-11-07T13:22:53.545Z</time>
      </trkpt>
      <trkpt lat="47.510849" lon="7.711435">
        <ele>340.921823</ele>
        <time>2021-11-07T13:22:55.572Z</time>
      </trkpt>
      <trkpt lat="47.509650" lon="7.711307">
        <ele>336.029737</ele>
        <time>2021-11-07T13:23:07.176Z</time>
      </trkpt>
      <trkpt lat="47.508867" lon="7.711685">
        <ele>334.959741</ele>
        <time>2021-11-07T13:23:18.150Z</time>
      </trkpt>
      <trkpt lat="47.508298" lon="7.712040">
        <ele>334.831161</ele>
        <time>2021-11-07T13:23:28.074Z</time>
      </trkpt>
      <trkpt lat="47.507634" lon="7.712013">
        <ele>334.681568</ele>
        <time>2021-11-07T13:23:39.016Z</time>
      </trkpt>
      <trkpt lat="47.506970" lon="7.712224">
        <ele>334.436649</ele>
        <time>2021-11-07T13:23:49.324Z</time>
      </trkpt>
      <trkpt lat="47.506809" lon="7.712355">
        <ele>334.370394</ele>
        <time>2021-11-07T13:23:51.777Z</time>
      </trkpt>
      <trkpt lat="47.506715" lon="7.712479">
        <ele>334.324987</ele>
        <time>2021-11-07T13:23:53.266Z</time>
      </trkpt>
      <trkpt lat="47.506266" lon="7.713149">
        <ele>334.095071</ele>
        <time>2021-11-07T13:24:01.285Z</time>
      </trkpt>
      <trkpt lat="47.505875" lon="7.713513">
        <ele>333.897308</ele>
        <time>2021-11-07T13:24:07.153Z</time>
      </trkpt>
      <trkpt lat="47.505683" lon="7.713648">
        <ele>333.802414</ele>
        <time>2021-11-07T13:24:10.013Z</time>
      </trkpt>
      <trkpt lat="47.505568" lon="7.713717">
        <ele>333.747016</ele>
        <time>2021-11-07T13:24:11.514Z</time>
      </trkpt>
      <trkpt lat="47.505140" lon="7.713870">
        <ele>333.550446</ele>
        <time>2021-11-07T13:24:17.250Z</time>
      </trkpt>
      <trkpt lat="47.505012" lon="7.713973">
        <ele>333.485404</ele>
        <time>2021-11-07T13:24:18.975Z</time>
      </trkpt>
      <trkpt lat="47.504968" lon="7.714063">
        <ele>333.451899</ele>
        <time>2021-11-07T13:24:20.109Z</time>
      </trkpt>
      <trkpt lat="47.504908" lon="7.714006">
        <ele>333.420071</ele>
        <time>2021-11-07T13:24:21.357Z</time>
      </trkpt>
      <trkpt lat="47.504863" lon="7.713967">
        <ele>333.396792</ele>
        <time>2021-11-07T13:24:22.265Z</time>
      </trkpt>
      <trkpt lat="47.504602" lon="7.713646">
        <ele>333.248395</ele>
        <time>2021-11-07T13:24:27.410Z</time>
      </trkpt>
      <trkpt lat="47.504446" lon="7.713401">
        <ele>333.174684</ele>
        <time>2021-11-07T13:24:30.338Z</time>
      </trkpt>
      <trkpt lat="47.504394" lon="7.713320">
        <ele>333.150219</ele>
        <time>2021-11-07T13:24:31.751Z</time>
      </trkpt>
      <trkpt lat="47.504303" lon="7.713177">
        <ele>333.107208</ele>
        <time>2021-11-07T13:24:34.507Z</time>
      </trkpt>
      <trkpt lat="47.504169" lon="7.713015">
        <ele>333.051137</ele>
        <time>2021-11-07T13:24:37.007Z</time>
      </trkpt>
      <trkpt lat="47.504095" lon="7.712929">
        <ele>333.020646</ele>
        <time>2021-11-07T13:24:39.130Z</time>
      </trkpt>
      <trkpt lat="47.504032" lon="7.712855">
        <ele>332.994581</ele>
        <time>2021-11-07T13:24:40.739Z</time>
      </trkpt>
      <trkpt lat="47.503857" lon="7.712710">
        <ele>332.929584</ele>
        <time>2021-11-07T13:24:43.651Z</time>
      </trkpt>
      <trkpt lat="47.503726" lon="7.712859">
        <ele>332.876043</ele>
        <time>2021-11-07T13:24:47.070Z</time>
      </trkpt>
      <trkpt lat="47.503553" lon="7.713042">
        <ele>332.807130</ele>
        <time>2021-11-07T13:24:49.793Z</time>
      </trkpt>
      <trkpt lat="47.503496" lon="7.713114">
        <ele>332.782846</ele>
        <time>2021-11-07T13:24:51.193Z</time>
      </trkpt>
      <trkpt lat="47.503496" lon="7.713114">
        <ele>332.782846</ele>
        <time>2021-11-07T13:24:51.195Z</time>
      </trkpt>
      <trkpt lat="47.503454" lon="7.713337">
        <ele>332.732160</ele>
        <time>2021-11-07T13:24:53.090Z</time>
      </trkpt>
      <trkpt lat="47.503475" lon="7.713452">
        <ele>332.706078</ele>
        <time>2021-11-07T13:24:53.933Z</time>
      </trkpt>
      <trkpt lat="47.503477" lon="7.713788">
        <ele>332.075846</ele>
        <time>2021-11-07T13:24:56.367Z</time>
      </trkpt>
      <trkpt lat="47.503465" lon="7.713906">
        <ele>331.696285</ele>
        <time>2021-11-07T13:24:57.181Z</time>
      </trkpt>
      <trkpt lat="47.503446" lon="7.714080">
        <ele>331.135645</ele>
        <time>2021-11-07T13:24:58.463Z</time>
      </trkpt>
      <trkpt lat="47.503376" lon="7.714303">
        <ele>330.353495</ele>
        <time>2021-11-07T13:25:00.140Z</time>
      </trkpt>
      <trkpt lat="47.503352" lon="7.714379">
        <ele>330.086647</ele>
        <time>2021-11-07T13:25:00.676Z</time>
      </trkpt>
      <trkpt lat="47.503243" lon="7.714676">
        <ele>329.011544</ele>
        <time>2021-11-07T13:25:02.924Z</time>
      </trkpt>
      <trkpt lat="47.503143" lon="7.714824">
        <ele>328.345729</ele>
        <time>2021-11-07T13:25:04.163Z</time>
      </trkpt>
      <trkpt lat="47.503112" lon="7.714858">
        <ele>328.164067</ele>
        <time>2021-11-07T13:25:04.540Z</time>
      </trkpt>
      <trkpt lat="47.503047" lon="7.714929">
        <ele>327.783713</ele>
        <time>2021-11-07T13:25:05.310Z</time>
      </trkpt>
      <trkpt lat="47.502947" lon="7.715052">
        <ele>327.171533</ele>
        <time>2021-11-07T13:25:06.554Z</time>
      </trkpt>
      <trkpt lat="47.502878" lon="7.715120">
        <ele>326.781234</ele>
        <time>2021-11-07T13:25:07.289Z</time>
      </trkpt>
      <trkpt lat="47.502840" lon="7.715168">
        <ele>326.546024</ele>
        <time>2021-11-07T13:25:07.720Z</time>
      </trkpt>
      <trkpt lat="47.502768" lon="7.715262">
        <ele>326.093998</ele>
        <time>2021-11-07T13:25:08.631Z</time>
      </trkpt>
      <trkpt lat="47.502701" lon="7.715349">
        <ele>325.674356</ele>
        <time>2021-11-07T13:25:09.483Z</time>
      </trkpt>
      <trkpt lat="47.502765" lon="7.715436">
        <ele>325.265226</ele>
        <time>2021-11-07T13:25:10.266Z</time>
      </trkpt>
      <trkpt lat="47.503037" lon="7.715711">
        <ele>323.595183</ele>
        <time>2021-11-07T13:25:13.276Z</time>
      </trkpt>
      <trkpt lat="47.503190" lon="7.715883">
        <ele>322.470898</ele>
        <time>2021-11-07T13:25:15.002Z</time>
      </trkpt>
      <trkpt lat="47.503374" lon="7.716090">
        <ele>321.118459</ele>
        <time>2021-11-07T13:25:17.113Z</time>
      </trkpt>
      <trkpt lat="47.503385" lon="7.716103">
        <ele>321.036088</ele>
        <time>2021-11-07T13:25:17.224Z</time>
      </trkpt>
      <trkpt lat="47.504638" lon="7.717428">
        <ele>312.706095</ele>
        <time>2021-11-07T13:25:31.470Z</time>
      </trkpt>
      <trkpt lat="47.504768" lon="7.717551">
        <ele>312.175034</ele>
        <time>2021-11-07T13:25:32.998Z</time>
      </trkpt>
      <trkpt lat="47.505110" lon="7.717878">
        <ele>310.773646</ele>
        <time>2021-11-07T13:25:37.189Z</time>
      </trkpt>
      <trkpt lat="47.505450" lon="7.718130">
        <ele>309.464851</ele>
        <time>2021-11-07T13:25:41.183Z</time>
      </trkpt>
      <trkpt lat="47.505555" lon="7.718218">
        <ele>309.049532</ele>
        <time>2021-11-07T13:25:42.466Z</time>
      </trkpt>
      <trkpt lat="47.505679" lon="7.718354">
        <ele>308.518335</ele>
        <time>2021-11-07T13:25:44.052Z</time>
      </trkpt>
      <trkpt lat="47.505743" lon="7.718437">
        <ele>308.225464</ele>
        <time>2021-11-07T13:25:44.965Z</time>
      </trkpt>
      <trkpt lat="47.505779" lon="7.718480">
        <ele>308.066243</ele>
        <time>2021-11-07T13:25:45.458Z</time>
      </trkpt>
      <trkpt lat="47.505956" lon="7.718729">
        <ele>307.196449</ele>
        <time>2021-11-07T13:25:47.963Z</time>
      </trkpt>
      <trkpt lat="47.505997" lon="7.718795">
        <ele>306.964656</ele>
        <time>2021-11-07T13:25:48.615Z</time>
      </trkpt>
      <trkpt lat="47.506068" lon="7.718917">
        <ele>306.548375</ele>
        <time>2021-11-07T13:25:49.789Z</time>
      </trkpt>
      <trkpt lat="47.506270" lon="7.719795">
        <ele>304.150640</ele>
        <time>2021-11-07T13:25:56.134Z</time>
      </trkpt>
      <trkpt lat="47.506301" lon="7.720052">
        <ele>303.475766</ele>
        <time>2021-11-07T13:25:57.822Z</time>
      </trkpt>
      <trkpt lat="47.506392" lon="7.720766">
        <ele>301.597456</ele>
        <time>2021-11-07T13:26:02.542Z</time>
      </trkpt>
      <trkpt lat="47.506430" lon="7.721111">
        <ele>300.693827</ele>
        <time>2021-11-07T13:26:04.827Z</time>
      </trkpt>
      <trkpt lat="47.506444" lon="7.721258">
        <ele>300.212587</ele>
        <time>2021-11-07T13:26:05.744Z</time>
      </trkpt>
      <trkpt lat="47.506487" lon="7.721251">
        <ele>299.992321</ele>
        <time>2021-11-07T13:26:06.153Z</time>
      </trkpt>
      <trkpt lat="47.506629" lon="7.721483">
        <ele>298.915509</ele>
        <time>2021-11-07T13:26:09.056Z</time>
      </trkpt>
      <trkpt lat="47.506792" lon="7.721716">
        <ele>297.761785</ele>
        <time>2021-11-07T13:26:12.046Z</time>
      </trkpt>
      <trkpt lat="47.506899" lon="7.721894">
        <ele>296.942240</ele>
        <time>2021-11-07T13:26:14.192Z</time>
      </trkpt>
      <trkpt lat="47.507172" lon="7.722216">
        <ele>295.164931</ele>
        <time>2021-11-07T13:26:18.832Z</time>
      </trkpt>
      <trkpt lat="47.507374" lon="7.722336">
        <ele>294.056672</ele>
        <time>2021-11-07T13:26:21.730Z</time>
      </trkpt>
      <trkpt lat="47.507569" lon="7.722425">
        <ele>293.017662</ele>
        <time>2021-11-07T13:26:24.459Z</time>
      </trkpt>
      <trkpt lat="47.507580" lon="7.722540">
        <ele>292.618179</ele>
        <time>2021-11-07T13:26:25.188Z</time>
      </trkpt>
      <trkpt lat="47.507757" lon="7.722978">
        <ele>291.114863</ele>
        <time>2021-11-07T13:26:28.449Z</time>
      </trkpt>
      <trkpt lat="47.507789" lon="7.723088">
        <ele>290.880795</ele>
        <time>2021-11-07T13:26:29.219Z</time>
      </trkpt>
      <trkpt lat="47.507799" lon="7.723186">
        <ele>290.687095</ele>
        <time>2021-11-07T13:26:29.867Z</time>
      </trkpt>
      <trkpt lat="47.507806" lon="7.723886">
        <ele>289.318896</ele>
        <time>2021-11-07T13:26:34.655Z</time>
      </trkpt>
      <trkpt lat="47.507810" lon="7.724326">
        <ele>288.458901</ele>
        <time>2021-11-07T13:26:37.706Z</time>
      </trkpt>
      <trkpt lat="47.508175" lon="7.724311">
        <ele>287.402460</ele>
        <time>2021-11-07T13:26:43.288Z</time>
      </trkpt>
      <trkpt lat="47.508425" lon="7.724317">
        <ele>286.679055</ele>
        <time>2021-11-07T13:26:47.329Z</time>
      </trkpt>
      <trkpt lat="47.508629" lon="7.724301">
        <ele>286.216262</ele>
        <time>2021-11-07T13:26:50.823Z</time>
      </trkpt>
      <trkpt lat="47.508823" lon="7.724215">
        <ele>286.115826</ele>
        <time>2021-11-07T13:26:53.310Z</time>
      </trkpt>
      <trkpt lat="47.509150" lon="7.724070">
        <ele>285.946530</ele>
        <time>2021-11-07T13:26:57.510Z</time>
      </trkpt>
      <trkpt lat="47.509672" lon="7.723906">
        <ele>285.681877</ele>
        <time>2021-11-07T13:27:04.430Z</time>
      </trkpt>
      <trkpt lat="47.509849" lon="7.723882">
        <ele>285.593725</ele>
        <time>2021-11-07T13:27:08.033Z</time>
      </trkpt>
      <trkpt lat="47.510349" lon="7.724011">
        <ele>285.353261</ele>
        <time>2021-11-07T13:27:19.001Z</time>
      </trkpt>
      <trkpt lat="47.510952" lon="7.724263">
        <ele>285.442489</ele>
        <time>2021-11-07T13:27:33.061Z</time>
      </trkpt>
      <trkpt lat="47.511606" lon="7.724590">
        <ele>285.540792</ele>
        <time>2021-11-07T13:27:45.531Z</time>
      </trkpt>
      <trkpt lat="47.511791" lon="7.724622">
        <ele>285.567317</ele>
        <time>2021-11-07T13:27:49.100Z</time>
      </trkpt>
      <trkpt lat="47.511979" lon="7.724618">
        <ele>285.594093</ele>
        <time>2021-11-07T13:27:52.943Z</time>
      </trkpt>
      <trkpt lat="47.512214" lon="7.724543">
        <ele>285.805814</ele>
        <time>2021-11-07T13:27:59.011Z</time>
      </trkpt>
      <trkpt lat="47.512277" lon="7.724501">
        <ele>285.897130</ele>
        <time>2021-11-07T13:28:00.111Z</time>
      </trkpt>
      <trkpt lat="47.512857" lon="7.723931">
        <ele>286.817195</ele>
        <time>2021-11-07T13:28:20.867Z</time>
      </trkpt>
      <trkpt lat="47.512888" lon="7.724074">
        <ele>286.951261</ele>
        <time>2021-11-07T13:28:22.966Z</time>
      </trkpt>
      <trkpt lat="47.512910" lon="7.724174">
        <ele>287.045145</ele>
        <time>2021-11-07T13:28:24.820Z</time>
      </trkpt>
      <trkpt lat="47.512976" lon="7.724418">
        <ele>287.279775</ele>
        <time>2021-11-07T13:28:28.214Z</time>
      </trkpt>
      <trkpt lat="47.513078" lon="7.724821">
        <ele>287.663952</ele>
        <time>2021-11-07T13:28:34.127Z</time>
      </trkpt>
      <trkpt lat="47.513150" lon="7.725105">
        <ele>287.934742</ele>
        <time>2021-11-07T13:28:36.501Z</time>
      </trkpt>
      <trkpt lat="47.513193" lon="7.725244">
        <ele>287.992056</ele>
        <time>2021-11-07T13:28:39.498Z</time>
      </trkpt>
      <trkpt lat="47.513232" lon="7.725318">
        <ele>287.999730</ele>
        <time>2021-11-07T13:28:40.653Z</time>
      </trkpt>
      <trkpt lat="47.513538" lon="7.725582">
        <ele>288.042595</ele>
        <time>2021-11-07T13:28:47.752Z</time>
      </trkpt>
      <trkpt lat="47.513681" lon="7.725617">
        <ele>288.060138</ele>
        <time>2021-11-07T13:28:50.079Z</time>
      </trkpt>
      <trkpt lat="47.514143" lon="7.725538">
        <ele>288.116427</ele>
        <time>2021-11-07T13:28:59.715Z</time>
      </trkpt>
      <trkpt lat="47.515140" lon="7.725368">
        <ele>287.541381</ele>
        <time>2021-11-07T13:29:11.631Z</time>
      </trkpt>
      <trkpt lat="47.515697" lon="7.725255">
        <ele>286.297373</ele>
        <time>2021-11-07T13:29:17.432Z</time>
      </trkpt>
      <trkpt lat="47.515959" lon="7.725102">
        <ele>285.674176</ele>
        <time>2021-11-07T13:29:20.416Z</time>
      </trkpt>
      <trkpt lat="47.516416" lon="7.724623">
        <ele>284.435230</ele>
        <time>2021-11-07T13:29:26.373Z</time>
      </trkpt>
      <trkpt lat="47.517269" lon="7.723372">
        <ele>282.129101</ele>
        <time>2021-11-07T13:29:39.436Z</time>
      </trkpt>
      <trkpt lat="47.517885" lon="7.722793">
        <ele>280.783990</ele>
        <time>2021-11-07T13:29:47.770Z</time>
      </trkpt>
      <trkpt lat="47.518038" lon="7.722700">
        <ele>280.648174</ele>
        <time>2021-11-07T13:29:49.650Z</time>
      </trkpt>
      <trkpt lat="47.518237" lon="7.722578">
        <ele>280.471305</ele>
        <time>2021-11-07T13:29:52.267Z</time>
      </trkpt>
      <trkpt lat="47.519305" lon="7.722165">
        <ele>279.564864</ele>
        <time>2021-11-07T13:30:05.868Z</time>
      </trkpt>
      <trkpt lat="47.520760" lon="7.721667">
        <ele>281.150203</ele>
        <time>2021-11-07T13:30:29.865Z</time>
      </trkpt>
      <trkpt lat="47.521121" lon="7.721544">
        <ele>281.703607</ele>
        <time>2021-11-07T13:30:39.307Z</time>
      </trkpt>
      <trkpt lat="47.521455" lon="7.721426">
        <ele>282.805878</ele>
        <time>2021-11-07T13:30:50.479Z</time>
      </trkpt>
      <trkpt lat="47.521722" lon="7.721283">
        <ele>284.520639</ele>
        <time>2021-11-07T13:31:00.077Z</time>
      </trkpt>
      <trkpt lat="47.521846" lon="7.721211">
        <ele>285.325044</ele>
        <time>2021-11-07T13:31:06.352Z</time>
      </trkpt>
      <trkpt lat="47.521984" lon="7.721168">
        <ele>286.176738</ele>
        <time>2021-11-07T13:31:11.106Z</time>
      </trkpt>
      <trkpt lat="47.522249" lon="7.721165">
        <ele>287.777235</ele>
        <time>2021-11-07T13:31:23.162Z</time>
      </trkpt>
      <trkpt lat="47.522498" lon="7.721207">
        <ele>289.290779</ele>
        <time>2021-11-07T13:31:33.800Z</time>
      </trkpt>
      <trkpt lat="47.522682" lon="7.721170">
        <ele>290.412235</ele>
        <time>2021-11-07T13:31:41.251Z</time>
      </trkpt>
      <trkpt lat="47.522888" lon="7.721170">
        <ele>291.656359</ele>
        <time>2021-11-07T13:31:50.985Z</time>
      </trkpt>
      <trkpt lat="47.523111" lon="7.721224">
        <ele>292.979175</ele>
        <time>2021-11-07T13:31:59.349Z</time>
      </trkpt>
      <trkpt lat="47.523300" lon="7.721328">
        <ele>293.820200</ele>
        <time>2021-11-07T13:32:08.673Z</time>
      </trkpt>
      <trkpt lat="47.523671" lon="7.721634">
        <ele>295.591562</ele>
        <time>2021-11-07T13:32:24.590Z</time>
      </trkpt>
      <trkpt lat="47.523902" lon="7.721670">
        <ele>296.560430</ele>
        <time>2021-11-07T13:32:33.405Z</time>
      </trkpt>
      <trkpt lat="47.524263" lon="7.721598">
        <ele>298.079828</ele>
        <time>2021-11-07T13:32:44.748Z</time>
      </trkpt>
      <trkpt lat="47.524632" lon="7.721805">
        <ele>299.725735</ele>
        <time>2021-11-07T13:32:54.107Z</time>
      </trkpt>
      <trkpt lat="47.524884" lon="7.722022">
        <ele>300.288648</ele>
        <time>2021-11-07T13:32:59.355Z</time>
      </trkpt>
      <trkpt lat="47.525258" lon="7.722384">
        <ele>299.953427</ele>
        <time>2021-11-07T13:33:05.493Z</time>
      </trkpt>
      <trkpt lat="47.525373" lon="7.722545">
        <ele>299.834693</ele>
        <time>2021-11-07T13:33:07.500Z</time>
      </trkpt>
      <trkpt lat="47.526099" lon="7.723563">
        <ele>299.084568</ele>
        <time>2021-11-07T13:33:18.898Z</time>
      </trkpt>
      <trkpt lat="47.526744" lon="7.724750">
        <ele>298.304821</ele>
        <time>2021-11-07T13:33:30.834Z</time>
      </trkpt>
      <trkpt lat="47.526894" lon="7.725042">
        <ele>298.116935</ele>
        <time>2021-11-07T13:33:33.870Z</time>
      </trkpt>
      <trkpt lat="47.527862" lon="7.727114">
        <ele>298.171418</ele>
        <time>2021-11-07T13:34:02.083Z</time>
      </trkpt>
      <trkpt lat="47.528009" lon="7.727429">
        <ele>298.286286</ele>
        <time>2021-11-07T13:34:06.960Z</time>
      </trkpt>
      <trkpt lat="47.528065" lon="7.727556">
        <ele>298.331788</ele>
        <time>2021-11-07T13:34:08.744Z</time>
      </trkpt>
      <trkpt lat="47.528164" lon="7.727824">
        <ele>298.423429</ele>
        <time>2021-11-07T13:34:12.307Z</time>
      </trkpt>
      <trkpt lat="47.528320" lon="7.728136">
        <ele>298.395876</ele>
        <time>2021-11-07T13:34:16.482Z</time>
      </trkpt>
      <trkpt lat="47.528408" lon="7.728307">
        <ele>298.319944</ele>
        <time>2021-11-07T13:34:18.616Z</time>
      </trkpt>
      <trkpt lat="47.528552" lon="7.728411">
        <ele>298.236148</ele>
        <time>2021-11-07T13:34:20.871Z</time>
      </trkpt>
      <trkpt lat="47.528614" lon="7.728431">
        <ele>298.202960</ele>
        <time>2021-11-07T13:34:21.773Z</time>
      </trkpt>
      <trkpt lat="47.528688" lon="7.728441">
        <ele>298.164094</ele>
        <time>2021-11-07T13:34:22.768Z</time>
      </trkpt>
      <trkpt lat="47.528715" lon="7.728334">
        <ele>298.123753</ele>
        <time>2021-11-07T13:34:23.775Z</time>
      </trkpt>
      <trkpt lat="47.528746" lon="7.728265">
        <ele>298.094483</ele>
        <time>2021-11-07T13:34:24.542Z</time>
      </trkpt>
      <trkpt lat="47.528803" lon="7.728159">
        <ele>298.046627</ele>
        <time>2021-11-07T13:34:25.776Z</time>
      </trkpt>
      <trkpt lat="47.528848" lon="7.728118">
        <ele>298.018993</ele>
        <time>2021-11-07T13:34:26.480Z</time>
      </trkpt>
      <trkpt lat="47.528941" lon="7.728048">
        <ele>297.964429</ele>
        <time>2021-11-07T13:34:27.830Z</time>
      </trkpt>
      <trkpt lat="47.529269" lon="7.727844">
        <ele>297.778359</ele>
        <time>2021-11-07T13:34:32.293Z</time>
      </trkpt>
      <trkpt lat="47.529976" lon="7.727410">
        <ele>297.254677</ele>
        <time>2021-11-07T13:34:41.460Z</time>
      </trkpt>
      <trkpt lat="47.530372" lon="7.727161">
        <ele>296.850446</ele>
        <time>2021-11-07T13:34:46.581Z</time>
      </trkpt>
      <trkpt lat="47.530756" lon="7.726844">
        <ele>296.437374</ele>
        <time>2021-11-07T13:34:51.925Z</time>
      </trkpt>
      <trkpt lat="47.531031" lon="7.726569">
        <ele>296.125597</ele>
        <time>2021-11-07T13:34:56.089Z</time>
      </trkpt>
      <trkpt lat="47.531193" lon="7.726888">
        <ele>295.872365</ele>
        <time>2021-11-07T13:34:59.525Z</time>
      </trkpt>
      <trkpt lat="47.531296" lon="7.727089">
        <ele>295.788717</ele>
        <time>2021-11-07T13:35:01.859Z</time>
      </trkpt>
      <trkpt lat="47.531623" lon="7.727725">
        <ele>295.578179</ele>
        <time>2021-11-07T13:35:09.071Z</time>
      </trkpt>
      <trkpt lat="47.531815" lon="7.728165">
        <ele>295.440204</ele>
        <time>2021-11-07T13:35:13.820Z</time>
      </trkpt>
      <trkpt lat="47.531944" lon="7.728603">
        <ele>295.314354</ele>
        <time>2021-11-07T13:35:18.157Z</time>
      </trkpt>
      <trkpt lat="47.532193" lon="7.730459">
        <ele>295.308321</ele>
        <time>2021-11-07T13:35:36.430Z</time>
      </trkpt>
      <trkpt lat="47.532405" lon="7.731493">
        <ele>295.454331</ele>
        <time>2021-11-07T13:35:48.387Z</time>
      </trkpt>
      <trkpt lat="47.532473" lon="7.731703">
        <ele>295.485799</ele>
        <time>2021-11-07T13:35:51.019Z</time>
      </trkpt>
      <trkpt lat="47.532665" lon="7.732105">
        <ele>295.954765</ele>
        <time>2021-11-07T13:35:56.830Z</time>
      </trkpt>
      <trkpt lat="47.532776" lon="7.732283">
        <ele>296.245824</ele>
        <time>2021-11-07T13:35:59.744Z</time>
      </trkpt>
      <trkpt lat="47.532853" lon="7.732416">
        <ele>296.456275</ele>
        <time>2021-11-07T13:36:01.972Z</time>
      </trkpt>
      <trkpt lat="47.532961" lon="7.732599">
        <ele>296.748234</ele>
        <time>2021-11-07T13:36:05.051Z</time>
      </trkpt>
      <trkpt lat="47.533220" lon="7.733022">
        <ele>297.434163</ele>
        <time>2021-11-07T13:36:13.242Z</time>
      </trkpt>
      <trkpt lat="47.533324" lon="7.733190">
        <ele>297.707948</ele>
        <time>2021-11-07T13:36:16.935Z</time>
      </trkpt>
      <trkpt lat="47.533172" lon="7.733397">
        <ele>298.075310</ele>
        <time>2021-11-07T13:36:21.939Z</time>
      </trkpt>
      <trkpt lat="47.532841" lon="7.733867">
        <ele>299.173398</ele>
        <time>2021-11-07T13:36:34.281Z</time>
      </trkpt>
      <trkpt lat="47.532630" lon="7.734166">
        <ele>300.465714</ele>
        <time>2021-11-07T13:36:42.400Z</time>
      </trkpt>
      <trkpt lat="47.532268" lon="7.734634">
        <ele>302.592182</ele>
        <time>2021-11-07T13:36:58.335Z</time>
      </trkpt>
      <trkpt lat="47.531894" lon="7.735120">
        <ele>304.794040</ele>
        <time>2021-11-07T13:37:15.357Z</time>
      </trkpt>
      <trkpt lat="47.531808" lon="7.735233">
        <ele>305.302814</ele>
        <time>2021-11-07T13:37:19.436Z</time>
      </trkpt>
      <trkpt lat="47.531735" lon="7.735310">
        <ele>305.699426</ele>
        <time>2021-11-07T13:37:22.275Z</time>
      </trkpt>
      <trkpt lat="47.531429" lon="7.735601">
        <ele>307.280016</ele>
        <time>2021-11-07T13:37:35.561Z</time>
      </trkpt>
      <trkpt lat="47.531429" lon="7.735601">
        <ele>307.280016</ele>
        <time>2021-11-07T13:37:35.662Z</time>
      </trkpt>
      <trkpt lat="47.531325" lon="7.735684">
        <ele>307.779644</ele>
        <time>2021-11-07T13:37:39.602Z</time>
      </trkpt>
      <trkpt lat="47.531389" lon="7.735745">
        <ele>308.101517</ele>
        <time>2021-11-07T13:37:43.140Z</time>
      </trkpt>
      <trkpt lat="47.531710" lon="7.735855">
        <ele>309.494953</ele>
        <time>2021-11-07T13:37:54.681Z</time>
      </trkpt>
      <trkpt lat="47.531874" lon="7.736048">
        <ele>310.380834</ele>
        <time>2021-11-07T13:38:01.901Z</time>
      </trkpt>
      <trkpt lat="47.533153" lon="7.739664">
        <ele>319.520577</ele>
        <time>2021-11-07T13:39:18.546Z</time>
      </trkpt>
      <trkpt lat="47.533191" lon="7.739816">
        <ele>319.533886</ele>
        <time>2021-11-07T13:39:20.728Z</time>
      </trkpt>
      <trkpt lat="47.533352" lon="7.740430">
        <ele>319.587969</ele>
        <time>2021-11-07T13:39:27.923Z</time>
      </trkpt>
      <trkpt lat="47.533707" lon="7.742025">
        <ele>319.725863</ele>
        <time>2021-11-07T13:39:42.923Z</time>
      </trkpt>
      <trkpt lat="47.533870" lon="7.743466">
        <ele>319.189164</ele>
        <time>2021-11-07T13:39:55.001Z</time>
      </trkpt>
      <trkpt lat="47.534043" lon="7.744207">
        <ele>318.873324</ele>
        <time>2021-11-07T13:40:02.084Z</time>
      </trkpt>
      <trkpt lat="47.534097" lon="7.744343">
        <ele>318.809768</ele>
        <time>2021-11-07T13:40:03.532Z</time>
      </trkpt>
      <trkpt lat="47.534179" lon="7.744495">
        <ele>318.731392</ele>
        <time>2021-11-07T13:40:05.411Z</time>
      </trkpt>
      <trkpt lat="47.534370" lon="7.744709">
        <ele>318.655700</ele>
        <time>2021-11-07T13:40:08.705Z</time>
      </trkpt>
      <trkpt lat="47.534429" lon="7.744856">
        <ele>318.650239</ele>
        <time>2021-11-07T13:40:10.467Z</time>
      </trkpt>
      <trkpt lat="47.534874" lon="7.746551">
        <ele>318.592160</ele>
        <time>2021-11-07T13:40:28.017Z</time>
      </trkpt>
      <trkpt lat="47.535912" lon="7.749669">
        <ele>319.253756</ele>
        <time>2021-11-07T13:41:06.358Z</time>
      </trkpt>
      <trkpt lat="47.537134" lon="7.752309">
        <ele>320.213172</ele>
        <time>2021-11-07T13:41:40.510Z</time>
      </trkpt>
      <trkpt lat="47.537371" lon="7.752851">
        <ele>320.625832</ele>
        <time>2021-11-07T13:41:47.159Z</time>
      </trkpt>
      <trkpt lat="47.537564" lon="7.753073">
        <ele>320.857132</ele>
        <time>2021-11-07T13:41:50.974Z</time>
      </trkpt>
      <trkpt lat="47.537715" lon="7.753194">
        <ele>321.019638</ele>
        <time>2021-11-07T13:41:54.819Z</time>
      </trkpt>
      <trkpt lat="47.538052" lon="7.753460">
        <ele>321.427383</ele>
        <time>2021-11-07T13:42:03.904Z</time>
      </trkpt>
      <trkpt lat="47.538359" lon="7.753900">
        <ele>323.353361</ele>
        <time>2021-11-07T13:42:15.135Z</time>
      </trkpt>
      <trkpt lat="47.538494" lon="7.754103">
        <ele>324.220674</ele>
        <time>2021-11-07T13:42:20.940Z</time>
      </trkpt>
      <trkpt lat="47.538723" lon="7.754445">
        <ele>325.686810</ele>
        <time>2021-11-07T13:42:31.133Z</time>
      </trkpt>
      <trkpt lat="47.538792" lon="7.754549">
        <ele>326.130632</ele>
        <time>2021-11-07T13:42:34.995Z</time>
      </trkpt>
      <trkpt lat="47.539079" lon="7.754976">
        <ele>327.964600</ele>
        <time>2021-11-07T13:42:50.693Z</time>
      </trkpt>
      <trkpt lat="47.539230" lon="7.755294">
        <ele>329.147938</ele>
        <time>2021-11-07T13:43:01.353Z</time>
      </trkpt>
      <trkpt lat="47.539346" lon="7.755736">
        <ele>330.579046</ele>
        <time>2021-11-07T13:43:14.644Z</time>
      </trkpt>
      <trkpt lat="47.539595" lon="7.757548">
        <ele>336.145187</ele>
        <time>2021-11-07T13:43:58.566Z</time>
      </trkpt>
      <trkpt lat="47.539722" lon="7.758107">
        <ele>337.329997</ele>
        <time>2021-11-07T13:44:07.574Z</time>
      </trkpt>
      <trkpt lat="47.539949" lon="7.758688">
        <ele>336.526675</ele>
        <time>2021-11-07T13:44:14.786Z</time>
      </trkpt>
      <trkpt lat="47.540447" lon="7.759585">
        <ele>335.136877</ele>
        <time>2021-11-07T13:44:23.310Z</time>
      </trkpt>
      <trkpt lat="47.540567" lon="7.759901">
        <ele>334.703005</ele>
        <time>2021-11-07T13:44:25.696Z</time>
      </trkpt>
      <trkpt lat="47.540921" lon="7.761599">
        <ele>327.178649</ele>
        <time>2021-11-07T13:44:36.819Z</time>
      </trkpt>
      <trkpt lat="47.541004" lon="7.762306">
        <ele>323.645581</ele>
        <time>2021-11-07T13:44:41.039Z</time>
      </trkpt>
      <trkpt lat="47.541023" lon="7.762922">
        <ele>320.471600</ele>
        <time>2021-11-07T13:44:44.622Z</time>
      </trkpt>
      <trkpt lat="47.541219" lon="7.763853">
        <ele>314.531778</ele>
        <time>2021-11-07T13:44:50.246Z</time>
      </trkpt>
      <trkpt lat="47.541334" lon="7.764020">
        <ele>313.078789</ele>
        <time>2021-11-07T13:44:51.712Z</time>
      </trkpt>
      <trkpt lat="47.541377" lon="7.764045">
        <ele>312.662011</ele>
        <time>2021-11-07T13:44:52.085Z</time>
      </trkpt>
      <trkpt lat="47.541364" lon="7.764150">
        <ele>312.011820</ele>
        <time>2021-11-07T13:44:52.696Z</time>
      </trkpt>
      <trkpt lat="47.541443" lon="7.764512">
        <ele>309.694638</ele>
        <time>2021-11-07T13:44:55.007Z</time>
      </trkpt>
      <trkpt lat="47.541552" lon="7.764869">
        <ele>307.308200</ele>
        <time>2021-11-07T13:44:57.301Z</time>
      </trkpt>
      <trkpt lat="47.541697" lon="7.765479">
        <ele>304.210691</ele>
        <time>2021-11-07T13:45:01.183Z</time>
      </trkpt>
      <trkpt lat="47.542317" lon="7.768533">
        <ele>296.767128</ele>
        <time>2021-11-07T13:45:22.656Z</time>
      </trkpt>
      <trkpt lat="47.542450" lon="7.769311">
        <ele>296.222950</ele>
        <time>2021-11-07T13:45:30.371Z</time>
      </trkpt>
      <trkpt lat="47.542720" lon="7.770771">
        <ele>295.606485</ele>
        <time>2021-11-07T13:45:46.915Z</time>
      </trkpt>
      <trkpt lat="47.543108" lon="7.773069">
        <ele>296.191189</ele>
        <time>2021-11-07T13:46:13.767Z</time>
      </trkpt>
      <trkpt lat="47.543145" lon="7.773277">
        <ele>296.208989</ele>
        <time>2021-11-07T13:46:15.893Z</time>
      </trkpt>
      <trkpt lat="47.543350" lon="7.774507">
        <ele>296.313835</ele>
        <time>2021-11-07T13:46:28.356Z</time>
      </trkpt>
      <trkpt lat="47.543402" lon="7.775016">
        <ele>296.356436</ele>
        <time>2021-11-07T13:46:33.419Z</time>
      </trkpt>
      <trkpt lat="47.543449" lon="7.775478">
        <ele>296.395101</ele>
        <time>2021-11-07T13:46:38.112Z</time>
      </trkpt>
      <trkpt lat="47.543482" lon="7.776095">
        <ele>296.980716</ele>
        <time>2021-11-07T13:46:44.820Z</time>
      </trkpt>
      <trkpt lat="47.543527" lon="7.776532">
        <ele>297.438369</ele>
        <time>2021-11-07T13:46:49.979Z</time>
      </trkpt>
      <trkpt lat="47.543707" lon="7.777394">
        <ele>298.372506</ele>
        <time>2021-11-07T13:47:02.265Z</time>
      </trkpt>
      <trkpt lat="47.543933" lon="7.778374">
        <ele>300.135649</ele>
        <time>2021-11-07T13:47:20.592Z</time>
      </trkpt>
      <trkpt lat="47.544100" lon="7.779438">
        <ele>303.996973</ele>
        <time>2021-11-07T13:47:44.793Z</time>
      </trkpt>
      <trkpt lat="47.544461" lon="7.782254">
        <ele>312.664405</ele>
        <time>2021-11-07T13:49:05.394Z</time>
      </trkpt>
      <trkpt lat="47.544469" lon="7.782455">
        <ele>313.188395</ele>
        <time>2021-11-07T13:49:10.428Z</time>
      </trkpt>
      <trkpt lat="47.544474" lon="7.782623">
        <ele>313.626023</ele>
        <time>2021-11-07T13:49:12.815Z</time>
      </trkpt>
      <trkpt lat="47.544490" lon="7.783060">
        <ele>314.764942</ele>
        <time>2021-11-07T13:49:16.707Z</time>
      </trkpt>
      <trkpt lat="47.544555" lon="7.783372">
        <ele>315.376986</ele>
        <time>2021-11-07T13:49:19.192Z</time>
      </trkpt>
      <trkpt lat="47.544627" lon="7.783499">
        <ele>314.815531</ele>
        <time>2021-11-07T13:49:20.589Z</time>
      </trkpt>
      <trkpt lat="47.544950" lon="7.784008">
        <ele>312.450535</ele>
        <time>2021-11-07T13:49:27.401Z</time>
      </trkpt>
      <trkpt lat="47.545054" lon="7.784227">
        <ele>311.544067</ele>
        <time>2021-11-07T13:49:29.973Z</time>
      </trkpt>
      <trkpt lat="47.545240" lon="7.784746">
        <ele>309.554830</ele>
        <time>2021-11-07T13:49:35.128Z</time>
      </trkpt>
      <trkpt lat="47.545250" lon="7.784778">
        <ele>309.435456</ele>
        <time>2021-11-07T13:49:35.401Z</time>
      </trkpt>
      <trkpt lat="47.545624" lon="7.785548">
        <ele>306.288907</ele>
        <time>2021-11-07T13:49:43.565Z</time>
      </trkpt>
      <trkpt lat="47.545672" lon="7.785654">
        <ele>305.961763</ele>
        <time>2021-11-07T13:49:44.574Z</time>
      </trkpt>
      <trkpt lat="47.545856" lon="7.785973">
        <ele>304.886337</ele>
        <time>2021-11-07T13:49:48.415Z</time>
      </trkpt>
      <trkpt lat="47.546102" lon="7.786217">
        <ele>303.762269</ele>
        <time>2021-11-07T13:49:52.399Z</time>
      </trkpt>
      <trkpt lat="47.546417" lon="7.786331">
        <ele>302.531056</ele>
        <time>2021-11-07T13:49:56.974Z</time>
      </trkpt>
      <trkpt lat="47.546464" lon="7.786335">
        <ele>302.352305</ele>
        <time>2021-11-07T13:49:57.736Z</time>
      </trkpt>
      <trkpt lat="47.546526" lon="7.786353">
        <ele>302.112415</ele>
        <time>2021-11-07T13:49:58.733Z</time>
      </trkpt>
      <trkpt lat="47.546913" lon="7.786470">
        <ele>300.612707</ele>
        <time>2021-11-07T13:50:04.891Z</time>
      </trkpt>
      <trkpt lat="47.546952" lon="7.786540">
        <ele>300.380084</ele>
        <time>2021-11-07T13:50:05.829Z</time>
      </trkpt>
      <trkpt lat="47.546959" lon="7.786598">
        <ele>300.229078</ele>
        <time>2021-11-07T13:50:06.530Z</time>
      </trkpt>
      <trkpt lat="47.546897" lon="7.787133">
        <ele>299.706188</ele>
        <time>2021-11-07T13:50:13.731Z</time>
      </trkpt>
      <trkpt lat="47.546695" lon="7.788763">
        <ele>299.936619</ele>
        <time>2021-11-07T13:50:37.817Z</time>
      </trkpt>
      <trkpt lat="47.546673" lon="7.788921">
        <ele>299.959051</ele>
        <time>2021-11-07T13:50:40.436Z</time>
      </trkpt>
      <trkpt lat="47.546501" lon="7.790187">
        <ele>300.576790</ele>
        <time>2021-11-07T13:51:00.746Z</time>
      </trkpt>
      <trkpt lat="47.546253" lon="7.791998">
        <ele>301.889926</ele>
        <time>2021-11-07T13:51:32.720Z</time>
      </trkpt>
      <trkpt lat="47.546027" lon="7.793254">
        <ele>301.897630</ele>
        <time>2021-11-07T13:51:52.163Z</time>
      </trkpt>
      <trkpt lat="47.545969" lon="7.793663">
        <ele>301.888285</ele>
        <time>2021-11-07T13:51:57.285Z</time>
      </trkpt>
      <trkpt lat="47.545923" lon="7.794420">
        <ele>301.871290</ele>
        <time>2021-11-07T13:52:06.551Z</time>
      </trkpt>
      <trkpt lat="47.545921" lon="7.794468">
        <ele>301.870215</ele>
        <time>2021-11-07T13:52:07.115Z</time>
      </trkpt>
      <trkpt lat="47.545947" lon="7.794710">
        <ele>301.856719</ele>
        <time>2021-11-07T13:52:09.952Z</time>
      </trkpt>
      <trkpt lat="47.546019" lon="7.795020">
        <ele>301.802588</ele>
        <time>2021-11-07T13:52:13.974Z</time>
      </trkpt>
      <trkpt lat="47.546165" lon="7.795511">
        <ele>301.714000</ele>
        <time>2021-11-07T13:52:20.963Z</time>
      </trkpt>
      <trkpt lat="47.546170" lon="7.795612">
        <ele>301.697279</ele>
        <time>2021-11-07T13:52:22.009Z</time>
      </trkpt>
      <trkpt lat="47.546154" lon="7.795747">
        <ele>301.674648</ele>
        <time>2021-11-07T13:52:23.830Z</time>
      </trkpt>
      <trkpt lat="47.546105" lon="7.795928">
        <ele>301.642448</ele>
        <time>2021-11-07T13:52:26.997Z</time>
      </trkpt>
      <trkpt lat="47.546038" lon="7.796107">
        <ele>301.608653</ele>
        <time>2021-11-07T13:52:29.312Z</time>
      </trkpt>
      <trkpt lat="47.545889" lon="7.796500">
        <ele>301.534228</ele>
        <time>2021-11-07T13:52:36.196Z</time>
      </trkpt>
      <trkpt lat="47.545788" lon="7.796748">
        <ele>301.486404</ele>
        <time>2021-11-07T13:52:39.809Z</time>
      </trkpt>
      <trkpt lat="47.545728" lon="7.796950">
        <ele>301.449965</ele>
        <time>2021-11-07T13:52:43.193Z</time>
      </trkpt>
      <trkpt lat="47.545689" lon="7.797076">
        <ele>301.427077</ele>
        <time>2021-11-07T13:52:44.641Z</time>
      </trkpt>
      <trkpt lat="47.545670" lon="7.797142">
        <ele>301.426793</ele>
        <time>2021-11-07T13:52:45.690Z</time>
      </trkpt>
      <trkpt lat="47.545645" lon="7.797258">
        <ele>301.428234</ele>
        <time>2021-11-07T13:52:47.436Z</time>
      </trkpt>
      <trkpt lat="47.545637" lon="7.797310">
        <ele>301.428865</ele>
        <time>2021-11-07T13:52:48.776Z</time>
      </trkpt>
      <trkpt lat="47.545623" lon="7.797458">
        <ele>301.430633</ele>
        <time>2021-11-07T13:52:50.860Z</time>
      </trkpt>
      <trkpt lat="47.545558" lon="7.798144">
        <ele>301.438830</ele>
        <time>2021-11-07T13:53:00.087Z</time>
      </trkpt>
      <trkpt lat="47.545511" lon="7.798680">
        <ele>301.445225</ele>
        <time>2021-11-07T13:53:08.155Z</time>
      </trkpt>
      <trkpt lat="47.545581" lon="7.798713">
        <ele>301.446513</ele>
        <time>2021-11-07T13:53:09.652Z</time>
      </trkpt>
      <trkpt lat="47.545731" lon="7.798810">
        <ele>301.449382</ele>
        <time>2021-11-07T13:53:13.710Z</time>
      </trkpt>
      <trkpt lat="47.545807" lon="7.798846">
        <ele>301.450781</ele>
        <time>2021-11-07T13:53:15.039Z</time>
      </trkpt>
      <trkpt lat="47.546418" lon="7.798980">
        <ele>301.321080</ele>
        <time>2021-11-07T13:53:27.043Z</time>
      </trkpt>
      <trkpt lat="47.547540" lon="7.799538">
        <ele>300.623531</ele>
        <time>2021-11-07T13:53:47.668Z</time>
      </trkpt>
      <trkpt lat="47.547912" lon="7.799646">
        <ele>300.400112</ele>
        <time>2021-11-07T13:53:55.049Z</time>
      </trkpt>
      <trkpt lat="47.548459" lon="7.799691">
        <ele>300.336690</ele>
        <time>2021-11-07T13:54:05.987Z</time>
      </trkpt>
      <trkpt lat="47.548535" lon="7.799720">
        <ele>300.327912</ele>
        <time>2021-11-07T13:54:07.507Z</time>
      </trkpt>
      <trkpt lat="47.548514" lon="7.799795">
        <ele>300.321782</ele>
        <time>2021-11-07T13:54:08.571Z</time>
      </trkpt>
      <trkpt lat="47.548519" lon="7.799896">
        <ele>300.314136</ele>
        <time>2021-11-07T13:54:09.926Z</time>
      </trkpt>
      <trkpt lat="47.548545" lon="7.800404">
        <ele>300.275674</ele>
        <time>2021-11-07T13:54:16.716Z</time>
      </trkpt>
      <trkpt lat="47.548560" lon="7.800672">
        <ele>300.255372</ele>
        <time>2021-11-07T13:54:20.409Z</time>
      </trkpt>
      <trkpt lat="47.548569" lon="7.800838">
        <ele>300.242799</ele>
        <time>2021-11-07T13:54:22.653Z</time>
      </trkpt>
      <trkpt lat="47.548576" lon="7.800968">
        <ele>300.232954</ele>
        <time>2021-11-07T13:54:24.428Z</time>
      </trkpt>
      <trkpt lat="47.548596" lon="7.801213">
        <ele>300.214323</ele>
        <time>2021-11-07T13:54:27.808Z</time>
      </trkpt>
      <trkpt lat="47.548607" lon="7.801690">
        <ele>300.161458</ele>
        <time>2021-11-07T13:54:34.308Z</time>
      </trkpt>
      <trkpt lat="47.548626" lon="7.802129">
        <ele>300.097180</ele>
        <time>2021-11-07T13:54:40.227Z</time>
      </trkpt>
      <trkpt lat="47.548626" lon="7.802129">
        <ele>300.097180</ele>
        <time>2021-11-07T13:54:40.231Z</time>
      </trkpt>
      <trkpt lat="47.548626" lon="7.802129">
        <ele>300.097180</ele>
        <time>2021-11-07T13:54:40.239Z</time>
      </trkpt>
      <trkpt lat="47.548877" lon="7.802168">
        <ele>300.042545</ele>
        <time>2021-11-07T13:54:45.230Z</time>
      </trkpt>
      <trkpt lat="47.549410" lon="7.802226">
        <ele>299.926849</ele>
        <time>2021-11-07T13:54:55.644Z</time>
      </trkpt>
      <trkpt lat="47.549481" lon="7.802234">
        <ele>299.911435</ele>
        <time>2021-11-07T13:54:56.982Z</time>
      </trkpt>
      <trkpt lat="47.549879" lon="7.802247">
        <ele>299.825254</ele>
        <time>2021-11-07T13:55:04.448Z</time>
      </trkpt>
      <trkpt lat="47.550146" lon="7.802262">
        <ele>299.749479</ele>
        <time>2021-11-07T13:55:09.522Z</time>
      </trkpt>
      <trkpt lat="47.550134" lon="7.803051">
        <ele>299.581814</ele>
        <time>2021-11-07T13:55:19.746Z</time>
      </trkpt>
      <trkpt lat="47.550196" lon="7.803120">
        <ele>299.557406</ele>
        <time>2021-11-07T13:55:21.205Z</time>
      </trkpt>
      <trkpt lat="47.550981" lon="7.803132">
        <ele>299.310302</ele>
        <time>2021-11-07T13:55:35.852Z</time>
      </trkpt>
      <trkpt lat="47.551163" lon="7.803129">
        <ele>299.253011</ele>
        <time>2021-11-07T13:55:39.255Z</time>
      </trkpt>
      <trkpt lat="47.551598" lon="7.803160">
        <ele>299.462876</ele>
        <time>2021-11-07T13:55:47.848Z</time>
      </trkpt>
      <trkpt lat="47.551666" lon="7.803144">
        <ele>299.501439</ele>
        <time>2021-11-07T13:55:52.592Z</time>
      </trkpt>
      <trkpt lat="47.551732" lon="7.803125">
        <ele>299.539096</ele>
        <time>2021-11-07T13:55:57.259Z</time>
      </trkpt>
      <trkpt lat="47.551744" lon="7.803277">
        <ele>299.596947</ele>
        <time>2021-11-07T13:55:58.953Z</time>
      </trkpt>
      <trkpt lat="47.551751" lon="7.803369">
        <ele>299.631945</ele>
        <time>2021-11-07T13:56:00.027Z</time>
      </trkpt>
      <trkpt lat="47.551692" lon="7.803510">
        <ele>299.694658</ele>
        <time>2021-11-07T13:56:02.702Z</time>
      </trkpt>
      <trkpt lat="47.551741" lon="7.804294">
        <ele>299.992292</ele>
        <time>2021-11-07T13:56:15.677Z</time>
      </trkpt>
      <trkpt lat="47.551744" lon="7.804473">
        <ele>300.059978</ele>
        <time>2021-11-07T13:56:18.200Z</time>
      </trkpt>
      <trkpt lat="47.551731" lon="7.804667">
        <ele>300.133674</ele>
        <time>2021-11-07T13:56:22.203Z</time>
      </trkpt>
      <trkpt lat="47.551709" lon="7.805000">
        <ele>300.257485</ele>
        <time>2021-11-07T13:56:26.672Z</time>
      </trkpt>
      <trkpt lat="47.551681" lon="7.805477">
        <ele>300.398189</ele>
        <time>2021-11-07T13:56:34.386Z</time>
      </trkpt>
      <trkpt lat="47.551679" lon="7.805622">
        <ele>300.440808</ele>
        <time>2021-11-07T13:56:36.868Z</time>
      </trkpt>
      <trkpt lat="47.551671" lon="7.806117">
        <ele>300.586314</ele>
        <time>2021-11-07T13:56:44.518Z</time>
      </trkpt>
      <trkpt lat="47.551651" lon="7.806246">
        <ele>300.625211</ele>
        <time>2021-11-07T13:56:47.427Z</time>
      </trkpt>
      <trkpt lat="47.551895" lon="7.806278">
        <ele>300.731865</ele>
        <time>2021-11-07T13:56:50.935Z</time>
      </trkpt>
      <trkpt lat="47.552015" lon="7.806307">
        <ele>300.784805</ele>
        <time>2021-11-07T13:56:53.824Z</time>
      </trkpt>
      <trkpt lat="47.552068" lon="7.806445">
        <ele>300.831464</ele>
        <time>2021-11-07T13:56:55.262Z</time>
      </trkpt>
      <trkpt lat="47.552398" lon="7.808880">
        <ele>300.366020</ele>
        <time>2021-11-07T13:57:17.382Z</time>
      </trkpt>
      <trkpt lat="47.552566" lon="7.810386">
        <ele>299.748309</ele>
        <time>2021-11-07T13:57:30.393Z</time>
      </trkpt>
      <trkpt lat="47.552711" lon="7.812955">
        <ele>298.597848</ele>
        <time>2021-11-07T13:57:53.001Z</time>
      </trkpt>
      <trkpt lat="47.552844" lon="7.816432">
        <ele>297.500002</ele>
        <time>2021-11-07T13:58:23.494Z</time>
      </trkpt>
      <trkpt lat="47.552948" lon="7.819358">
        <ele>297.823910</ele>
        <time>2021-11-07T13:58:54.724Z</time>
      </trkpt>
      <trkpt lat="47.552896" lon="7.820699">
        <ele>298.306040</ele>
        <time>2021-11-07T13:59:10.808Z</time>
      </trkpt>
      <trkpt lat="47.552567" lon="7.824508">
        <ele>300.223344</ele>
        <time>2021-11-07T13:59:57.293Z</time>
      </trkpt>
      <trkpt lat="47.552491" lon="7.827227">
        <ele>301.757247</ele>
        <time>2021-11-07T14:00:29.033Z</time>
      </trkpt>
      <trkpt lat="47.552515" lon="7.828094">
        <ele>302.305814</ele>
        <time>2021-11-07T14:00:40.743Z</time>
      </trkpt>
      <trkpt lat="47.552477" lon="7.828294">
        <ele>302.437166</ele>
        <time>2021-11-07T14:00:43.360Z</time>
      </trkpt>
      <trkpt lat="47.552421" lon="7.828481">
        <ele>302.723626</ele>
        <time>2021-11-07T14:00:46.291Z</time>
      </trkpt>
      <trkpt lat="47.552404" lon="7.828582">
        <ele>302.877711</ele>
        <time>2021-11-07T14:00:47.975Z</time>
      </trkpt>
      <trkpt lat="47.552416" lon="7.828822">
        <ele>303.233945</ele>
        <time>2021-11-07T14:00:51.209Z</time>
      </trkpt>
      <trkpt lat="47.552554" lon="7.829266">
        <ele>303.957519</ele>
        <time>2021-11-07T14:00:58.561Z</time>
      </trkpt>
      <trkpt lat="47.552645" lon="7.830686">
        <ele>306.068924</ele>
        <time>2021-11-07T14:01:21.867Z</time>
      </trkpt>
      <trkpt lat="47.552690" lon="7.832598">
        <ele>309.816484</ele>
        <time>2021-11-07T14:01:57.344Z</time>
      </trkpt>
      <trkpt lat="47.552616" lon="7.832891">
        <ele>310.448721</ele>
        <time>2021-11-07T14:02:02.708Z</time>
      </trkpt>
      <trkpt lat="47.552556" lon="7.832977">
        <ele>310.698691</ele>
        <time>2021-11-07T14:02:05.439Z</time>
      </trkpt>
      <trkpt lat="47.552511" lon="7.833072">
        <ele>310.933248</ele>
        <time>2021-11-07T14:02:07.465Z</time>
      </trkpt>
      <trkpt lat="47.552467" lon="7.833198">
        <ele>311.219953</ele>
        <time>2021-11-07T14:02:09.867Z</time>
      </trkpt>
      <trkpt lat="47.552452" lon="7.833284">
        <ele>311.399464</ele>
        <time>2021-11-07T14:02:11.477Z</time>
      </trkpt>
      <trkpt lat="47.552696" lon="7.833789">
        <ele>312.458433</ele>
        <time>2021-11-07T14:02:22.509Z</time>
      </trkpt>
      <trkpt lat="47.552700" lon="7.833938">
        <ele>312.692192</ele>
        <time>2021-11-07T14:02:25.453Z</time>
      </trkpt>
      <trkpt lat="47.552714" lon="7.835010">
        <ele>314.372991</ele>
        <time>2021-11-07T14:02:43.930Z</time>
      </trkpt>
      <trkpt lat="47.552719" lon="7.836790">
        <ele>316.729709</ele>
        <time>2021-11-07T14:03:09.214Z</time>
      </trkpt>
      <trkpt lat="47.552697" lon="7.838068">
        <ele>318.012916</ele>
        <time>2021-11-07T14:03:26.856Z</time>
      </trkpt>
      <trkpt lat="47.552736" lon="7.838578">
        <ele>318.528103</ele>
        <time>2021-11-07T14:03:33.982Z</time>
      </trkpt>
      <trkpt lat="47.552802" lon="7.839009">
        <ele>319.001730</ele>
        <time>2021-11-07T14:03:40.201Z</time>
      </trkpt>
      <trkpt lat="47.552939" lon="7.839526">
        <ele>319.608600</ele>
        <time>2021-11-07T14:03:47.991Z</time>
      </trkpt>
      <trkpt lat="47.553231" lon="7.841529">
        <ele>321.766734</ele>
        <time>2021-11-07T14:04:18.121Z</time>
      </trkpt>
      <trkpt lat="47.553216" lon="7.841849">
        <ele>322.023678</ele>
        <time>2021-11-07T14:04:22.645Z</time>
      </trkpt>
      <trkpt lat="47.553123" lon="7.842222">
        <ele>322.342195</ele>
        <time>2021-11-07T14:04:27.875Z</time>
      </trkpt>
      <trkpt lat="47.553133" lon="7.842431">
        <ele>322.510029</ele>
        <time>2021-11-07T14:04:31.004Z</time>
      </trkpt>
      <trkpt lat="47.552833" lon="7.842495">
        <ele>322.869760</ele>
        <time>2021-11-07T14:04:38.313Z</time>
      </trkpt>
      <trkpt lat="47.552380" lon="7.842592">
        <ele>323.412995</ele>
        <time>2021-11-07T14:04:49.361Z</time>
      </trkpt>
      <trkpt lat="47.551922" lon="7.842704">
        <ele>323.873581</ele>
        <time>2021-11-07T14:04:59.928Z</time>
      </trkpt>
      <trkpt lat="47.551668" lon="7.842770">
        <ele>324.082474</ele>
        <time>2021-11-07T14:05:05.886Z</time>
      </trkpt>
      <trkpt lat="47.551454" lon="7.842815">
        <ele>324.257561</ele>
        <time>2021-11-07T14:05:10.573Z</time>
      </trkpt>
      <trkpt lat="47.551344" lon="7.844621">
        <ele>325.315809</ele>
        <time>2021-11-07T14:05:33.088Z</time>
      </trkpt>
      <trkpt lat="47.551205" lon="7.846694">
        <ele>327.130796</ele>
        <time>2021-11-07T14:06:01.075Z</time>
      </trkpt>
      <trkpt lat="47.551184" lon="7.847206">
        <ele>327.602706</ele>
        <time>2021-11-07T14:06:08.461Z</time>
      </trkpt>
      <trkpt lat="47.551196" lon="7.847517">
        <ele>327.930881</ele>
        <time>2021-11-07T14:06:13.025Z</time>
      </trkpt>
      <trkpt lat="47.551669" lon="7.848083">
        <ele>328.879909</ele>
        <time>2021-11-07T14:06:26.086Z</time>
      </trkpt>
      <trkpt lat="47.551242" lon="7.848702">
        <ele>329.812373</ele>
        <time>2021-11-07T14:06:38.694Z</time>
      </trkpt>
      <trkpt lat="47.550975" lon="7.849066">
        <ele>330.352823</ele>
        <time>2021-11-07T14:06:46.009Z</time>
      </trkpt>
      <trkpt lat="47.550869" lon="7.849245">
        <ele>330.546230</ele>
        <time>2021-11-07T14:06:50.040Z</time>
      </trkpt>
      <trkpt lat="47.550810" lon="7.849346">
        <ele>330.654719</ele>
        <time>2021-11-07T14:06:52.403Z</time>
      </trkpt>
      <trkpt lat="47.550488" lon="7.850081">
        <ele>331.366411</ele>
        <time>2021-11-07T14:07:07.843Z</time>
      </trkpt>
      <trkpt lat="47.550333" lon="7.850434">
        <ele>331.708449</ele>
        <time>2021-11-07T14:07:15.189Z</time>
      </trkpt>
      <trkpt lat="47.550009" lon="7.851173">
        <ele>332.424181</ele>
        <time>2021-11-07T14:07:29.795Z</time>
      </trkpt>
      <trkpt lat="47.549652" lon="7.851969">
        <ele>332.439703</ele>
        <time>2021-11-07T14:07:43.674Z</time>
      </trkpt>
      <trkpt lat="47.549535" lon="7.852225">
        <ele>332.442838</ele>
        <time>2021-11-07T14:07:47.732Z</time>
      </trkpt>
      <trkpt lat="47.549285" lon="7.852784">
        <ele>332.449637</ele>
        <time>2021-11-07T14:07:56.365Z</time>
      </trkpt>
      <trkpt lat="47.549285" lon="7.852783">
        <ele>332.449647</ele>
        <time>2021-11-07T14:07:56.376Z</time>
      </trkpt>
      <trkpt lat="47.549285" lon="7.852784">
        <ele>332.449657</ele>
        <time>2021-11-07T14:07:56.390Z</time>
      </trkpt>
      <trkpt lat="47.549708" lon="7.853279">
        <ele>332.433393</ele>
        <time>2021-11-07T14:08:06.791Z</time>
      </trkpt>
      <trkpt lat="47.550221" lon="7.853833">
        <ele>332.084655</ele>
        <time>2021-11-07T14:08:18.711Z</time>
      </trkpt>
      <trkpt lat="47.549883" lon="7.854434">
        <ele>331.794591</ele>
        <time>2021-11-07T14:08:25.389Z</time>
      </trkpt>
      <trkpt lat="47.549566" lon="7.855225">
        <ele>331.462009</ele>
        <time>2021-11-07T14:08:36.533Z</time>
      </trkpt>
      <trkpt lat="47.549362" lon="7.855774">
        <ele>331.357165</ele>
        <time>2021-11-07T14:08:44.455Z</time>
      </trkpt>
      <trkpt lat="47.548887" lon="7.857308">
        <ele>331.074816</ele>
        <time>2021-11-07T14:09:06.563Z</time>
      </trkpt>
      <trkpt lat="47.548743" lon="7.857692">
        <ele>331.081185</ele>
        <time>2021-11-07T14:09:12.535Z</time>
      </trkpt>
      <trkpt lat="47.548701" lon="7.857893">
        <ele>331.174517</ele>
        <time>2021-11-07T14:09:15.506Z</time>
      </trkpt>
      <trkpt lat="47.548686" lon="7.857973">
        <ele>331.211346</ele>
        <time>2021-11-07T14:09:16.629Z</time>
      </trkpt>
      <trkpt lat="47.548611" lon="7.858381">
        <ele>331.398914</ele>
        <time>2021-11-07T14:09:22.843Z</time>
      </trkpt>
      <trkpt lat="47.548334" lon="7.859801">
        <ele>332.054562</ele>
        <time>2021-11-07T14:09:45.881Z</time>
      </trkpt>
      <trkpt lat="47.548049" lon="7.860929">
        <ele>333.151361</ele>
        <time>2021-11-07T14:10:06.899Z</time>
      </trkpt>
      <trkpt lat="47.547930" lon="7.861711">
        <ele>334.028398</ele>
        <time>2021-11-07T14:10:21.663Z</time>
      </trkpt>
      <trkpt lat="47.547568" lon="7.863151">
        <ele>335.120658</ele>
        <time>2021-11-07T14:10:50.379Z</time>
      </trkpt>
      <trkpt lat="47.547320" lon="7.863864">
        <ele>335.120658</ele>
        <time>2021-11-07T14:11:04.662Z</time>
      </trkpt>
      <trkpt lat="47.547153" lon="7.864134">
        <ele>335.120658</ele>
        <time>2021-11-07T14:11:10.995Z</time>
      </trkpt>
    </trkseg>
  </trk>
</gpx>